<?xml version="1.0" encoding="UTF-8" standalone="no" ?>
<gpx xmlns="http://www.topografix.com/GPX/1/1" xmlns:xsi="http://www.w3.org/2001/XMLSchema-instance" xsi:schemaLocation="http://www.topografix.com/GPX/1/1 http://www.topografix.com/GPX/1/1/gpx.xsd" version="1.1" creator="VisuGPX - https://www.visugpx.com">
  <metadata>
    <name>Sortie entre Le Moulinal et Paulhiac</name>
    <desc><![CDATA[Sortie entre Le Moulinal et Paulhiac]]></desc>
  </metadata>
  <trk>
    <name><![CDATA[18-NOV-12 12:04:45]]></name>
    <trkseg>
      <trkpt lat="44.6003" lon="0.8713">
        <ele>152.03</ele>
        <time>2012-11-18T07:58:35Z</time>
      </trkpt>
      <trkpt lat="44.6003" lon="0.87129">
        <ele>152.99</ele>
        <time>2012-11-18T07:58:58Z</time>
      </trkpt>
      <trkpt lat="44.60031" lon="0.8713">
        <ele>152.99</ele>
        <time>2012-11-18T07:59:21Z</time>
      </trkpt>
      <trkpt lat="44.60032" lon="0.8713">
        <ele>153.95</ele>
        <time>2012-11-18T07:59:48Z</time>
      </trkpt>
      <trkpt lat="44.60032" lon="0.87129">
        <ele>153.47</ele>
        <time>2012-11-18T08:00:17Z</time>
      </trkpt>
      <trkpt lat="44.60032" lon="0.87124">
        <ele>152.51</ele>
        <time>2012-11-18T08:00:35Z</time>
      </trkpt>
      <trkpt lat="44.6002" lon="0.87129">
        <ele>152.03</ele>
        <time>2012-11-18T08:00:44Z</time>
      </trkpt>
      <trkpt lat="44.60024" lon="0.87157">
        <ele>151.54</ele>
        <time>2012-11-18T08:00:49Z</time>
      </trkpt>
      <trkpt lat="44.60026" lon="0.87175">
        <ele>151.54</ele>
        <time>2012-11-18T08:00:52Z</time>
      </trkpt>
      <trkpt lat="44.6003" lon="0.87277">
        <ele>152.03</ele>
        <time>2012-11-18T08:01:11Z</time>
      </trkpt>
      <trkpt lat="44.60028" lon="0.8729">
        <ele>152.51</ele>
        <time>2012-11-18T08:01:14Z</time>
      </trkpt>
      <trkpt lat="44.60016" lon="0.87295">
        <ele>153.95</ele>
        <time>2012-11-18T08:01:19Z</time>
      </trkpt>
      <trkpt lat="44.59977" lon="0.87272">
        <ele>158.75</ele>
        <time>2012-11-18T08:01:37Z</time>
      </trkpt>
      <trkpt lat="44.59953" lon="0.87232">
        <ele>159.24</ele>
        <time>2012-11-18T08:01:52Z</time>
      </trkpt>
      <trkpt lat="44.59917" lon="0.87199">
        <ele>158.75</ele>
        <time>2012-11-18T08:02:07Z</time>
      </trkpt>
      <trkpt lat="44.59873" lon="0.87196">
        <ele>157.79</ele>
        <time>2012-11-18T08:02:20Z</time>
      </trkpt>
      <trkpt lat="44.59838" lon="0.8725">
        <ele>158.75</ele>
        <time>2012-11-18T08:02:36Z</time>
      </trkpt>
      <trkpt lat="44.59794" lon="0.87316">
        <ele>163.08</ele>
        <time>2012-11-18T08:02:54Z</time>
      </trkpt>
      <trkpt lat="44.59769" lon="0.87363">
        <ele>165.48</ele>
        <time>2012-11-18T08:03:08Z</time>
      </trkpt>
      <trkpt lat="44.59743" lon="0.87403">
        <ele>166.93</ele>
        <time>2012-11-18T08:03:21Z</time>
      </trkpt>
      <trkpt lat="44.59715" lon="0.87445">
        <ele>169.81</ele>
        <time>2012-11-18T08:03:35Z</time>
      </trkpt>
      <trkpt lat="44.5968" lon="0.87489">
        <ele>176.06</ele>
        <time>2012-11-18T08:03:50Z</time>
      </trkpt>
      <trkpt lat="44.59649" lon="0.87524">
        <ele>181.35</ele>
        <time>2012-11-18T08:04:04Z</time>
      </trkpt>
      <trkpt lat="44.5963" lon="0.87558">
        <ele>184.23</ele>
        <time>2012-11-18T08:04:14Z</time>
      </trkpt>
      <trkpt lat="44.59607" lon="0.87613">
        <ele>187.11</ele>
        <time>2012-11-18T08:04:30Z</time>
      </trkpt>
      <trkpt lat="44.59589" lon="0.87675">
        <ele>188.08</ele>
        <time>2012-11-18T08:04:45Z</time>
      </trkpt>
      <trkpt lat="44.59577" lon="0.87721">
        <ele>189.52</ele>
        <time>2012-11-18T08:04:57Z</time>
      </trkpt>
      <trkpt lat="44.59566" lon="0.8777">
        <ele>190.48</ele>
        <time>2012-11-18T08:05:09Z</time>
      </trkpt>
      <trkpt lat="44.59556" lon="0.87803">
        <ele>191.44</ele>
        <time>2012-11-18T08:05:17Z</time>
      </trkpt>
      <trkpt lat="44.59549" lon="0.87844">
        <ele>191.44</ele>
        <time>2012-11-18T08:05:27Z</time>
      </trkpt>
      <trkpt lat="44.59548" lon="0.87852">
        <ele>191.44</ele>
        <time>2012-11-18T08:05:29Z</time>
      </trkpt>
      <trkpt lat="44.59533" lon="0.87861">
        <ele>192.4</ele>
        <time>2012-11-18T08:05:36Z</time>
      </trkpt>
      <trkpt lat="44.59496" lon="0.87841">
        <ele>190.48</ele>
        <time>2012-11-18T08:05:46Z</time>
      </trkpt>
      <trkpt lat="44.59478" lon="0.87836">
        <ele>190.96</ele>
        <time>2012-11-18T08:05:50Z</time>
      </trkpt>
      <trkpt lat="44.59458" lon="0.87832">
        <ele>192.88</ele>
        <time>2012-11-18T08:05:55Z</time>
      </trkpt>
      <trkpt lat="44.59449" lon="0.87832">
        <ele>193.36</ele>
        <time>2012-11-18T08:05:57Z</time>
      </trkpt>
      <trkpt lat="44.5944" lon="0.87834">
        <ele>193.84</ele>
        <time>2012-11-18T08:05:59Z</time>
      </trkpt>
      <trkpt lat="44.59431" lon="0.87836">
        <ele>194.32</ele>
        <time>2012-11-18T08:06:01Z</time>
      </trkpt>
      <trkpt lat="44.59423" lon="0.87836">
        <ele>194.8</ele>
        <time>2012-11-18T08:06:03Z</time>
      </trkpt>
      <trkpt lat="44.59404" lon="0.87824">
        <ele>194.8</ele>
        <time>2012-11-18T08:06:08Z</time>
      </trkpt>
      <trkpt lat="44.59385" lon="0.87813">
        <ele>194.32</ele>
        <time>2012-11-18T08:06:13Z</time>
      </trkpt>
      <trkpt lat="44.59361" lon="0.87824">
        <ele>194.8</ele>
        <time>2012-11-18T08:06:22Z</time>
      </trkpt>
      <trkpt lat="44.59321" lon="0.87845">
        <ele>195.77</ele>
        <time>2012-11-18T08:06:35Z</time>
      </trkpt>
      <trkpt lat="44.59276" lon="0.87884">
        <ele>193.36</ele>
        <time>2012-11-18T08:06:48Z</time>
      </trkpt>
      <trkpt lat="44.59255" lon="0.87907">
        <ele>190</ele>
        <time>2012-11-18T08:06:52Z</time>
      </trkpt>
      <trkpt lat="44.59237" lon="0.87939">
        <ele>186.15</ele>
        <time>2012-11-18T08:06:56Z</time>
      </trkpt>
      <trkpt lat="44.59202" lon="0.87993">
        <ele>181.35</ele>
        <time>2012-11-18T08:07:03Z</time>
      </trkpt>
      <trkpt lat="44.59152" lon="0.88059">
        <ele>175.1</ele>
        <time>2012-11-18T08:07:11Z</time>
      </trkpt>
      <trkpt lat="44.5912" lon="0.88123">
        <ele>169.81</ele>
        <time>2012-11-18T08:07:18Z</time>
      </trkpt>
      <trkpt lat="44.59073" lon="0.88156">
        <ele>164.52</ele>
        <time>2012-11-18T08:07:25Z</time>
      </trkpt>
      <trkpt lat="44.59065" lon="0.8815">
        <ele>163.56</ele>
        <time>2012-11-18T08:07:27Z</time>
      </trkpt>
      <trkpt lat="44.59042" lon="0.88127">
        <ele>163.08</ele>
        <time>2012-11-18T08:07:33Z</time>
      </trkpt>
      <trkpt lat="44.59025" lon="0.88131">
        <ele>162.6</ele>
        <time>2012-11-18T08:07:37Z</time>
      </trkpt>
      <trkpt lat="44.59007" lon="0.88146">
        <ele>162.12</ele>
        <time>2012-11-18T08:07:41Z</time>
      </trkpt>
      <trkpt lat="44.58984" lon="0.88174">
        <ele>159.24</ele>
        <time>2012-11-18T08:07:51Z</time>
      </trkpt>
      <trkpt lat="44.58983" lon="0.88174">
        <ele>158.27</ele>
        <time>2012-11-18T08:08:07Z</time>
      </trkpt>
      <trkpt lat="44.58983" lon="0.88174">
        <ele>159.24</ele>
        <time>2012-11-18T08:08:30Z</time>
      </trkpt>
      <trkpt lat="44.58968" lon="0.88159">
        <ele>157.31</ele>
        <time>2012-11-18T08:08:35Z</time>
      </trkpt>
      <trkpt lat="44.58941" lon="0.8812">
        <ele>152.51</ele>
        <time>2012-11-18T08:08:40Z</time>
      </trkpt>
      <trkpt lat="44.58912" lon="0.8808">
        <ele>147.7</ele>
        <time>2012-11-18T08:08:45Z</time>
      </trkpt>
      <trkpt lat="44.5888" lon="0.88048">
        <ele>143.37</ele>
        <time>2012-11-18T08:08:52Z</time>
      </trkpt>
      <trkpt lat="44.58826" lon="0.87953">
        <ele>144.82</ele>
        <time>2012-11-18T08:09:09Z</time>
      </trkpt>
      <trkpt lat="44.58823" lon="0.8795">
        <ele>144.82</ele>
        <time>2012-11-18T08:09:10Z</time>
      </trkpt>
      <trkpt lat="44.58804" lon="0.87933">
        <ele>145.3</ele>
        <time>2012-11-18T08:09:15Z</time>
      </trkpt>
      <trkpt lat="44.58754" lon="0.87918">
        <ele>145.3</ele>
        <time>2012-11-18T08:09:25Z</time>
      </trkpt>
      <trkpt lat="44.58734" lon="0.87908">
        <ele>145.78</ele>
        <time>2012-11-18T08:09:29Z</time>
      </trkpt>
      <trkpt lat="44.58688" lon="0.87899">
        <ele>146.74</ele>
        <time>2012-11-18T08:09:37Z</time>
      </trkpt>
      <trkpt lat="44.58637" lon="0.87908">
        <ele>149.14</ele>
        <time>2012-11-18T08:09:46Z</time>
      </trkpt>
      <trkpt lat="44.58626" lon="0.87907">
        <ele>150.1</ele>
        <time>2012-11-18T08:09:48Z</time>
      </trkpt>
      <trkpt lat="44.586" lon="0.87894">
        <ele>151.06</ele>
        <time>2012-11-18T08:09:53Z</time>
      </trkpt>
      <trkpt lat="44.58576" lon="0.87873">
        <ele>150.58</ele>
        <time>2012-11-18T08:09:58Z</time>
      </trkpt>
      <trkpt lat="44.5855" lon="0.87866">
        <ele>151.54</ele>
        <time>2012-11-18T08:10:04Z</time>
      </trkpt>
      <trkpt lat="44.58515" lon="0.87875">
        <ele>160.2</ele>
        <time>2012-11-18T08:10:16Z</time>
      </trkpt>
      <trkpt lat="44.5848" lon="0.87897">
        <ele>172.69</ele>
        <time>2012-11-18T08:10:31Z</time>
      </trkpt>
      <trkpt lat="44.58442" lon="0.87896">
        <ele>177.02</ele>
        <time>2012-11-18T08:10:43Z</time>
      </trkpt>
      <trkpt lat="44.58421" lon="0.8788">
        <ele>176.06</ele>
        <time>2012-11-18T08:10:51Z</time>
      </trkpt>
      <trkpt lat="44.58414" lon="0.87874">
        <ele>176.54</ele>
        <time>2012-11-18T08:10:55Z</time>
      </trkpt>
      <trkpt lat="44.5839" lon="0.87843">
        <ele>172.69</ele>
        <time>2012-11-18T08:11:08Z</time>
      </trkpt>
      <trkpt lat="44.58371" lon="0.87792">
        <ele>169.81</ele>
        <time>2012-11-18T08:11:21Z</time>
      </trkpt>
      <trkpt lat="44.58355" lon="0.87741">
        <ele>168.37</ele>
        <time>2012-11-18T08:11:31Z</time>
      </trkpt>
      <trkpt lat="44.58349" lon="0.87716">
        <ele>167.89</ele>
        <time>2012-11-18T08:11:35Z</time>
      </trkpt>
      <trkpt lat="44.58336" lon="0.87665">
        <ele>162.6</ele>
        <time>2012-11-18T08:11:44Z</time>
      </trkpt>
      <trkpt lat="44.58332" lon="0.8766">
        <ele>162.12</ele>
        <time>2012-11-18T08:11:45Z</time>
      </trkpt>
      <trkpt lat="44.58324" lon="0.87652">
        <ele>160.68</ele>
        <time>2012-11-18T08:11:47Z</time>
      </trkpt>
      <trkpt lat="44.58292" lon="0.87612">
        <ele>155.39</ele>
        <time>2012-11-18T08:11:55Z</time>
      </trkpt>
      <trkpt lat="44.58276" lon="0.8758">
        <ele>152.03</ele>
        <time>2012-11-18T08:12:00Z</time>
      </trkpt>
      <trkpt lat="44.58268" lon="0.8754">
        <ele>150.1</ele>
        <time>2012-11-18T08:12:06Z</time>
      </trkpt>
      <trkpt lat="44.58268" lon="0.87487">
        <ele>147.7</ele>
        <time>2012-11-18T08:12:15Z</time>
      </trkpt>
      <trkpt lat="44.58271" lon="0.87447">
        <ele>141.93</ele>
        <time>2012-11-18T08:12:26Z</time>
      </trkpt>
      <trkpt lat="44.58263" lon="0.87436">
        <ele>138.57</ele>
        <time>2012-11-18T08:12:30Z</time>
      </trkpt>
      <trkpt lat="44.58242" lon="0.87424">
        <ele>133.76</ele>
        <time>2012-11-18T08:12:36Z</time>
      </trkpt>
      <trkpt lat="44.58239" lon="0.87415">
        <ele>131.36</ele>
        <time>2012-11-18T08:12:39Z</time>
      </trkpt>
      <trkpt lat="44.58235" lon="0.87411">
        <ele>129.92</ele>
        <time>2012-11-18T08:12:43Z</time>
      </trkpt>
      <trkpt lat="44.58233" lon="0.87404">
        <ele>128.95</ele>
        <time>2012-11-18T08:12:47Z</time>
      </trkpt>
      <trkpt lat="44.58229" lon="0.87397">
        <ele>130.88</ele>
        <time>2012-11-18T08:12:59Z</time>
      </trkpt>
      <trkpt lat="44.58229" lon="0.87395">
        <ele>134.24</ele>
        <time>2012-11-18T08:13:25Z</time>
      </trkpt>
      <trkpt lat="44.58227" lon="0.87394">
        <ele>138.09</ele>
        <time>2012-11-18T08:13:53Z</time>
      </trkpt>
      <trkpt lat="44.58227" lon="0.87395">
        <ele>139.05</ele>
        <time>2012-11-18T08:14:05Z</time>
      </trkpt>
      <trkpt lat="44.5822" lon="0.87396">
        <ele>140.97</ele>
        <time>2012-11-18T08:14:11Z</time>
      </trkpt>
      <trkpt lat="44.58211" lon="0.87394">
        <ele>142.41</ele>
        <time>2012-11-18T08:14:16Z</time>
      </trkpt>
      <trkpt lat="44.58197" lon="0.87377">
        <ele>146.26</ele>
        <time>2012-11-18T08:14:27Z</time>
      </trkpt>
      <trkpt lat="44.5818" lon="0.87348">
        <ele>147.22</ele>
        <time>2012-11-18T08:14:39Z</time>
      </trkpt>
      <trkpt lat="44.58177" lon="0.87339">
        <ele>147.22</ele>
        <time>2012-11-18T08:14:42Z</time>
      </trkpt>
      <trkpt lat="44.5817" lon="0.87309">
        <ele>155.39</ele>
        <time>2012-11-18T08:14:55Z</time>
      </trkpt>
      <trkpt lat="44.58164" lon="0.87284">
        <ele>156.83</ele>
        <time>2012-11-18T08:15:09Z</time>
      </trkpt>
      <trkpt lat="44.58158" lon="0.87261">
        <ele>157.31</ele>
        <time>2012-11-18T08:15:21Z</time>
      </trkpt>
      <trkpt lat="44.58151" lon="0.87232">
        <ele>159.24</ele>
        <time>2012-11-18T08:15:33Z</time>
      </trkpt>
      <trkpt lat="44.5815" lon="0.87214">
        <ele>159.24</ele>
        <time>2012-11-18T08:15:45Z</time>
      </trkpt>
      <trkpt lat="44.5815" lon="0.87204">
        <ele>160.68</ele>
        <time>2012-11-18T08:16:06Z</time>
      </trkpt>
      <trkpt lat="44.58149" lon="0.87204">
        <ele>160.2</ele>
        <time>2012-11-18T08:16:36Z</time>
      </trkpt>
      <trkpt lat="44.5815" lon="0.87203">
        <ele>157.31</ele>
        <time>2012-11-18T08:16:51Z</time>
      </trkpt>
      <trkpt lat="44.58149" lon="0.87202">
        <ele>154.91</ele>
        <time>2012-11-18T08:17:20Z</time>
      </trkpt>
      <trkpt lat="44.58148" lon="0.87198">
        <ele>155.39</ele>
        <time>2012-11-18T08:17:35Z</time>
      </trkpt>
      <trkpt lat="44.58147" lon="0.87159">
        <ele>154.91</ele>
        <time>2012-11-18T08:17:50Z</time>
      </trkpt>
      <trkpt lat="44.5814" lon="0.87117">
        <ele>153.95</ele>
        <time>2012-11-18T08:18:02Z</time>
      </trkpt>
      <trkpt lat="44.58131" lon="0.87034">
        <ele>155.39</ele>
        <time>2012-11-18T08:18:17Z</time>
      </trkpt>
      <trkpt lat="44.58119" lon="0.86994">
        <ele>155.87</ele>
        <time>2012-11-18T08:18:27Z</time>
      </trkpt>
      <trkpt lat="44.58087" lon="0.8694">
        <ele>157.31</ele>
        <time>2012-11-18T08:18:40Z</time>
      </trkpt>
      <trkpt lat="44.58057" lon="0.86886">
        <ele>158.27</ele>
        <time>2012-11-18T08:18:53Z</time>
      </trkpt>
      <trkpt lat="44.58065" lon="0.86837">
        <ele>158.75</ele>
        <time>2012-11-18T08:19:04Z</time>
      </trkpt>
      <trkpt lat="44.58077" lon="0.86784">
        <ele>157.79</ele>
        <time>2012-11-18T08:19:15Z</time>
      </trkpt>
      <trkpt lat="44.58092" lon="0.86721">
        <ele>158.75</ele>
        <time>2012-11-18T08:19:30Z</time>
      </trkpt>
      <trkpt lat="44.581" lon="0.86678">
        <ele>157.79</ele>
        <time>2012-11-18T08:19:38Z</time>
      </trkpt>
      <trkpt lat="44.58098" lon="0.86661">
        <ele>157.31</ele>
        <time>2012-11-18T08:19:41Z</time>
      </trkpt>
      <trkpt lat="44.58085" lon="0.86602">
        <ele>156.83</ele>
        <time>2012-11-18T08:19:51Z</time>
      </trkpt>
      <trkpt lat="44.58082" lon="0.86583">
        <ele>158.27</ele>
        <time>2012-11-18T08:19:54Z</time>
      </trkpt>
      <trkpt lat="44.5808" lon="0.86559">
        <ele>158.75</ele>
        <time>2012-11-18T08:19:58Z</time>
      </trkpt>
      <trkpt lat="44.58075" lon="0.86508">
        <ele>159.24</ele>
        <time>2012-11-18T08:20:06Z</time>
      </trkpt>
      <trkpt lat="44.58066" lon="0.86443">
        <ele>160.2</ele>
        <time>2012-11-18T08:20:17Z</time>
      </trkpt>
      <trkpt lat="44.58043" lon="0.86388">
        <ele>159.72</ele>
        <time>2012-11-18T08:20:28Z</time>
      </trkpt>
      <trkpt lat="44.58018" lon="0.86329">
        <ele>160.68</ele>
        <time>2012-11-18T08:20:40Z</time>
      </trkpt>
      <trkpt lat="44.58002" lon="0.86299">
        <ele>161.16</ele>
        <time>2012-11-18T08:20:46Z</time>
      </trkpt>
      <trkpt lat="44.57972" lon="0.86232">
        <ele>164.04</ele>
        <time>2012-11-18T08:20:59Z</time>
      </trkpt>
      <trkpt lat="44.5795" lon="0.86158">
        <ele>164.52</ele>
        <time>2012-11-18T08:21:14Z</time>
      </trkpt>
      <trkpt lat="44.57925" lon="0.8611">
        <ele>165.48</ele>
        <time>2012-11-18T08:21:25Z</time>
      </trkpt>
      <trkpt lat="44.57904" lon="0.86059">
        <ele>167.41</ele>
        <time>2012-11-18T08:21:34Z</time>
      </trkpt>
      <trkpt lat="44.57888" lon="0.85977">
        <ele>174.14</ele>
        <time>2012-11-18T08:21:48Z</time>
      </trkpt>
      <trkpt lat="44.57868" lon="0.85925">
        <ele>177.5</ele>
        <time>2012-11-18T08:22:00Z</time>
      </trkpt>
      <trkpt lat="44.57858" lon="0.85918">
        <ele>177.98</ele>
        <time>2012-11-18T08:22:08Z</time>
      </trkpt>
      <trkpt lat="44.57854" lon="0.8591">
        <ele>178.94</ele>
        <time>2012-11-18T08:22:13Z</time>
      </trkpt>
      <trkpt lat="44.57847" lon="0.85904">
        <ele>178.94</ele>
        <time>2012-11-18T08:22:19Z</time>
      </trkpt>
      <trkpt lat="44.5784" lon="0.85903">
        <ele>178.94</ele>
        <time>2012-11-18T08:22:32Z</time>
      </trkpt>
      <trkpt lat="44.5784" lon="0.85902">
        <ele>178.46</ele>
        <time>2012-11-18T08:22:54Z</time>
      </trkpt>
      <trkpt lat="44.57839" lon="0.85901">
        <ele>177.5</ele>
        <time>2012-11-18T08:23:17Z</time>
      </trkpt>
      <trkpt lat="44.57837" lon="0.85901">
        <ele>177.98</ele>
        <time>2012-11-18T08:23:35Z</time>
      </trkpt>
      <trkpt lat="44.57837" lon="0.859">
        <ele>178.94</ele>
        <time>2012-11-18T08:23:49Z</time>
      </trkpt>
      <trkpt lat="44.57831" lon="0.85896">
        <ele>178.94</ele>
        <time>2012-11-18T08:23:53Z</time>
      </trkpt>
      <trkpt lat="44.57821" lon="0.85883">
        <ele>177.5</ele>
        <time>2012-11-18T08:23:57Z</time>
      </trkpt>
      <trkpt lat="44.57806" lon="0.85862">
        <ele>175.1</ele>
        <time>2012-11-18T08:24:01Z</time>
      </trkpt>
      <trkpt lat="44.57794" lon="0.85832">
        <ele>172.69</ele>
        <time>2012-11-18T08:24:05Z</time>
      </trkpt>
      <trkpt lat="44.57753" lon="0.85733">
        <ele>168.37</ele>
        <time>2012-11-18T08:24:16Z</time>
      </trkpt>
      <trkpt lat="44.57742" lon="0.857">
        <ele>166.93</ele>
        <time>2012-11-18T08:24:20Z</time>
      </trkpt>
      <trkpt lat="44.57737" lon="0.85683">
        <ele>166.45</ele>
        <time>2012-11-18T08:24:22Z</time>
      </trkpt>
      <trkpt lat="44.57731" lon="0.85668">
        <ele>165.96</ele>
        <time>2012-11-18T08:24:24Z</time>
      </trkpt>
      <trkpt lat="44.57721" lon="0.85618">
        <ele>165</ele>
        <time>2012-11-18T08:24:30Z</time>
      </trkpt>
      <trkpt lat="44.57716" lon="0.85548">
        <ele>165.96</ele>
        <time>2012-11-18T08:24:38Z</time>
      </trkpt>
      <trkpt lat="44.57719" lon="0.85533">
        <ele>166.45</ele>
        <time>2012-11-18T08:24:40Z</time>
      </trkpt>
      <trkpt lat="44.57722" lon="0.85519">
        <ele>166.45</ele>
        <time>2012-11-18T08:24:42Z</time>
      </trkpt>
      <trkpt lat="44.57721" lon="0.85495">
        <ele>167.41</ele>
        <time>2012-11-18T08:24:46Z</time>
      </trkpt>
      <trkpt lat="44.57701" lon="0.85456">
        <ele>169.33</ele>
        <time>2012-11-18T08:24:54Z</time>
      </trkpt>
      <trkpt lat="44.57693" lon="0.85452">
        <ele>169.81</ele>
        <time>2012-11-18T08:24:56Z</time>
      </trkpt>
      <trkpt lat="44.5766" lon="0.85426">
        <ele>176.54</ele>
        <time>2012-11-18T08:25:07Z</time>
      </trkpt>
      <trkpt lat="44.57654" lon="0.85421">
        <ele>178.46</ele>
        <time>2012-11-18T08:25:10Z</time>
      </trkpt>
      <trkpt lat="44.57649" lon="0.85425">
        <ele>180.87</ele>
        <time>2012-11-18T08:25:14Z</time>
      </trkpt>
      <trkpt lat="44.57631" lon="0.85468">
        <ele>183.75</ele>
        <time>2012-11-18T08:25:29Z</time>
      </trkpt>
      <trkpt lat="44.57605" lon="0.85521">
        <ele>183.27</ele>
        <time>2012-11-18T08:25:46Z</time>
      </trkpt>
      <trkpt lat="44.57579" lon="0.85568">
        <ele>183.27</ele>
        <time>2012-11-18T08:26:00Z</time>
      </trkpt>
      <trkpt lat="44.57541" lon="0.85611">
        <ele>183.27</ele>
        <time>2012-11-18T08:26:14Z</time>
      </trkpt>
      <trkpt lat="44.57496" lon="0.85665">
        <ele>183.75</ele>
        <time>2012-11-18T08:26:30Z</time>
      </trkpt>
      <trkpt lat="44.5746" lon="0.85738">
        <ele>185.19</ele>
        <time>2012-11-18T08:26:48Z</time>
      </trkpt>
      <trkpt lat="44.57434" lon="0.85797">
        <ele>185.19</ele>
        <time>2012-11-18T08:27:04Z</time>
      </trkpt>
      <trkpt lat="44.57407" lon="0.8585">
        <ele>185.19</ele>
        <time>2012-11-18T08:27:19Z</time>
      </trkpt>
      <trkpt lat="44.57402" lon="0.85861">
        <ele>185.67</ele>
        <time>2012-11-18T08:27:22Z</time>
      </trkpt>
      <trkpt lat="44.57396" lon="0.85848">
        <ele>185.67</ele>
        <time>2012-11-18T08:27:28Z</time>
      </trkpt>
      <trkpt lat="44.5741" lon="0.85785">
        <ele>184.23</ele>
        <time>2012-11-18T08:27:37Z</time>
      </trkpt>
      <trkpt lat="44.57409" lon="0.85748">
        <ele>183.75</ele>
        <time>2012-11-18T08:27:41Z</time>
      </trkpt>
      <trkpt lat="44.5741" lon="0.85628">
        <ele>181.35</ele>
        <time>2012-11-18T08:27:51Z</time>
      </trkpt>
      <trkpt lat="44.57408" lon="0.85541">
        <ele>178.46</ele>
        <time>2012-11-18T08:27:57Z</time>
      </trkpt>
      <trkpt lat="44.57406" lon="0.8547">
        <ele>175.1</ele>
        <time>2012-11-18T08:28:03Z</time>
      </trkpt>
      <trkpt lat="44.57384" lon="0.85447">
        <ele>173.66</ele>
        <time>2012-11-18T08:28:11Z</time>
      </trkpt>
      <trkpt lat="44.5736" lon="0.85433">
        <ele>170.77</ele>
        <time>2012-11-18T08:28:17Z</time>
      </trkpt>
      <trkpt lat="44.57353" lon="0.85405">
        <ele>168.85</ele>
        <time>2012-11-18T08:28:21Z</time>
      </trkpt>
      <trkpt lat="44.57363" lon="0.85374">
        <ele>167.41</ele>
        <time>2012-11-18T08:28:27Z</time>
      </trkpt>
      <trkpt lat="44.57398" lon="0.85334">
        <ele>169.33</ele>
        <time>2012-11-18T08:28:35Z</time>
      </trkpt>
      <trkpt lat="44.57397" lon="0.85319">
        <ele>170.29</ele>
        <time>2012-11-18T08:28:39Z</time>
      </trkpt>
      <trkpt lat="44.57383" lon="0.85278">
        <ele>171.73</ele>
        <time>2012-11-18T08:28:48Z</time>
      </trkpt>
      <trkpt lat="44.5737" lon="0.85262">
        <ele>173.66</ele>
        <time>2012-11-18T08:28:55Z</time>
      </trkpt>
      <trkpt lat="44.57365" lon="0.85251">
        <ele>173.66</ele>
        <time>2012-11-18T08:29:00Z</time>
      </trkpt>
      <trkpt lat="44.57362" lon="0.85246">
        <ele>176.54</ele>
        <time>2012-11-18T08:29:14Z</time>
      </trkpt>
      <trkpt lat="44.5736" lon="0.85244">
        <ele>178.94</ele>
        <time>2012-11-18T08:29:34Z</time>
      </trkpt>
      <trkpt lat="44.57357" lon="0.85244">
        <ele>183.27</ele>
        <time>2012-11-18T08:29:59Z</time>
      </trkpt>
      <trkpt lat="44.57357" lon="0.85242">
        <ele>182.31</ele>
        <time>2012-11-18T08:30:09Z</time>
      </trkpt>
      <trkpt lat="44.57341" lon="0.85198">
        <ele>180.38</ele>
        <time>2012-11-18T08:30:21Z</time>
      </trkpt>
      <trkpt lat="44.57305" lon="0.85113">
        <ele>177.5</ele>
        <time>2012-11-18T08:30:37Z</time>
      </trkpt>
      <trkpt lat="44.57293" lon="0.85087">
        <ele>177.02</ele>
        <time>2012-11-18T08:30:42Z</time>
      </trkpt>
      <trkpt lat="44.57277" lon="0.85057">
        <ele>177.02</ele>
        <time>2012-11-18T08:30:48Z</time>
      </trkpt>
      <trkpt lat="44.57249" lon="0.84961">
        <ele>175.1</ele>
        <time>2012-11-18T08:31:04Z</time>
      </trkpt>
      <trkpt lat="44.57238" lon="0.84918">
        <ele>175.1</ele>
        <time>2012-11-18T08:31:14Z</time>
      </trkpt>
      <trkpt lat="44.572" lon="0.84922">
        <ele>176.54</ele>
        <time>2012-11-18T08:31:24Z</time>
      </trkpt>
      <trkpt lat="44.57162" lon="0.84902">
        <ele>177.02</ele>
        <time>2012-11-18T08:31:35Z</time>
      </trkpt>
      <trkpt lat="44.57141" lon="0.84909">
        <ele>177.5</ele>
        <time>2012-11-18T08:31:40Z</time>
      </trkpt>
      <trkpt lat="44.57121" lon="0.84907">
        <ele>177.5</ele>
        <time>2012-11-18T08:31:44Z</time>
      </trkpt>
      <trkpt lat="44.57101" lon="0.8491">
        <ele>177.5</ele>
        <time>2012-11-18T08:31:48Z</time>
      </trkpt>
      <trkpt lat="44.57076" lon="0.84913">
        <ele>177.02</ele>
        <time>2012-11-18T08:31:52Z</time>
      </trkpt>
      <trkpt lat="44.57054" lon="0.84904">
        <ele>176.06</ele>
        <time>2012-11-18T08:31:56Z</time>
      </trkpt>
      <trkpt lat="44.57031" lon="0.84892">
        <ele>174.62</ele>
        <time>2012-11-18T08:32:00Z</time>
      </trkpt>
      <trkpt lat="44.56988" lon="0.84881">
        <ele>169.33</ele>
        <time>2012-11-18T08:32:08Z</time>
      </trkpt>
      <trkpt lat="44.56971" lon="0.84856">
        <ele>165</ele>
        <time>2012-11-18T08:32:14Z</time>
      </trkpt>
      <trkpt lat="44.56961" lon="0.84856">
        <ele>163.56</ele>
        <time>2012-11-18T08:32:16Z</time>
      </trkpt>
      <trkpt lat="44.56949" lon="0.84862">
        <ele>160.68</ele>
        <time>2012-11-18T08:32:19Z</time>
      </trkpt>
      <trkpt lat="44.56935" lon="0.84851">
        <ele>156.35</ele>
        <time>2012-11-18T08:32:23Z</time>
      </trkpt>
      <trkpt lat="44.56917" lon="0.84777">
        <ele>148.66</ele>
        <time>2012-11-18T08:32:33Z</time>
      </trkpt>
      <trkpt lat="44.56911" lon="0.84752">
        <ele>146.74</ele>
        <time>2012-11-18T08:32:36Z</time>
      </trkpt>
      <trkpt lat="44.56888" lon="0.84714">
        <ele>144.34</ele>
        <time>2012-11-18T08:32:42Z</time>
      </trkpt>
      <trkpt lat="44.5688" lon="0.84696">
        <ele>143.37</ele>
        <time>2012-11-18T08:32:45Z</time>
      </trkpt>
      <trkpt lat="44.56871" lon="0.84678">
        <ele>143.37</ele>
        <time>2012-11-18T08:32:49Z</time>
      </trkpt>
      <trkpt lat="44.56861" lon="0.84665">
        <ele>144.34</ele>
        <time>2012-11-18T08:32:52Z</time>
      </trkpt>
      <trkpt lat="44.56791" lon="0.84614">
        <ele>144.34</ele>
        <time>2012-11-18T08:33:06Z</time>
      </trkpt>
      <trkpt lat="44.56763" lon="0.84575">
        <ele>144.34</ele>
        <time>2012-11-18T08:33:15Z</time>
      </trkpt>
      <trkpt lat="44.5676" lon="0.84573">
        <ele>144.34</ele>
        <time>2012-11-18T08:33:18Z</time>
      </trkpt>
      <trkpt lat="44.56759" lon="0.84575">
        <ele>144.82</ele>
        <time>2012-11-18T08:33:20Z</time>
      </trkpt>
      <trkpt lat="44.56761" lon="0.846">
        <ele>144.34</ele>
        <time>2012-11-18T08:33:32Z</time>
      </trkpt>
      <trkpt lat="44.56761" lon="0.84605">
        <ele>144.34</ele>
        <time>2012-11-18T08:33:34Z</time>
      </trkpt>
      <trkpt lat="44.56755" lon="0.8466">
        <ele>139.53</ele>
        <time>2012-11-18T08:33:51Z</time>
      </trkpt>
      <trkpt lat="44.56738" lon="0.84701">
        <ele>135.2</ele>
        <time>2012-11-18T08:34:04Z</time>
      </trkpt>
      <trkpt lat="44.56706" lon="0.84734">
        <ele>138.57</ele>
        <time>2012-11-18T08:34:17Z</time>
      </trkpt>
      <trkpt lat="44.56664" lon="0.8477">
        <ele>145.3</ele>
        <time>2012-11-18T08:34:31Z</time>
      </trkpt>
      <trkpt lat="44.5662" lon="0.84808">
        <ele>149.62</ele>
        <time>2012-11-18T08:34:45Z</time>
      </trkpt>
      <trkpt lat="44.56577" lon="0.84829">
        <ele>153.95</ele>
        <time>2012-11-18T08:35:00Z</time>
      </trkpt>
      <trkpt lat="44.56527" lon="0.84846">
        <ele>157.79</ele>
        <time>2012-11-18T08:35:18Z</time>
      </trkpt>
      <trkpt lat="44.56495" lon="0.84857">
        <ele>161.64</ele>
        <time>2012-11-18T08:35:32Z</time>
      </trkpt>
      <trkpt lat="44.56462" lon="0.84861">
        <ele>163.56</ele>
        <time>2012-11-18T08:35:45Z</time>
      </trkpt>
      <trkpt lat="44.56424" lon="0.84862">
        <ele>166.93</ele>
        <time>2012-11-18T08:36:00Z</time>
      </trkpt>
      <trkpt lat="44.56384" lon="0.84865">
        <ele>166.93</ele>
        <time>2012-11-18T08:36:15Z</time>
      </trkpt>
      <trkpt lat="44.56341" lon="0.84876">
        <ele>165</ele>
        <time>2012-11-18T08:36:31Z</time>
      </trkpt>
      <trkpt lat="44.56331" lon="0.8487">
        <ele>164.52</ele>
        <time>2012-11-18T08:36:41Z</time>
      </trkpt>
      <trkpt lat="44.5632" lon="0.84864">
        <ele>164.52</ele>
        <time>2012-11-18T08:37:01Z</time>
      </trkpt>
      <trkpt lat="44.56279" lon="0.84833">
        <ele>161.64</ele>
        <time>2012-11-18T08:37:14Z</time>
      </trkpt>
      <trkpt lat="44.56272" lon="0.84826">
        <ele>161.16</ele>
        <time>2012-11-18T08:37:16Z</time>
      </trkpt>
      <trkpt lat="44.56251" lon="0.84778">
        <ele>159.24</ele>
        <time>2012-11-18T08:37:24Z</time>
      </trkpt>
      <trkpt lat="44.56204" lon="0.84703">
        <ele>155.87</ele>
        <time>2012-11-18T08:37:37Z</time>
      </trkpt>
      <trkpt lat="44.5619" lon="0.84673">
        <ele>154.43</ele>
        <time>2012-11-18T08:37:41Z</time>
      </trkpt>
      <trkpt lat="44.56172" lon="0.8463">
        <ele>152.03</ele>
        <time>2012-11-18T08:37:47Z</time>
      </trkpt>
      <trkpt lat="44.56163" lon="0.84624">
        <ele>151.54</ele>
        <time>2012-11-18T08:38:01Z</time>
      </trkpt>
      <trkpt lat="44.56164" lon="0.84622">
        <ele>152.03</ele>
        <time>2012-11-18T08:38:17Z</time>
      </trkpt>
      <trkpt lat="44.56163" lon="0.84622">
        <ele>156.35</ele>
        <time>2012-11-18T08:38:36Z</time>
      </trkpt>
      <trkpt lat="44.56164" lon="0.84623">
        <ele>156.35</ele>
        <time>2012-11-18T08:38:54Z</time>
      </trkpt>
      <trkpt lat="44.56167" lon="0.84623">
        <ele>155.87</ele>
        <time>2012-11-18T08:39:15Z</time>
      </trkpt>
      <trkpt lat="44.56168" lon="0.84623">
        <ele>153.47</ele>
        <time>2012-11-18T08:39:36Z</time>
      </trkpt>
      <trkpt lat="44.56167" lon="0.84624">
        <ele>151.54</ele>
        <time>2012-11-18T08:39:57Z</time>
      </trkpt>
      <trkpt lat="44.56165" lon="0.84623">
        <ele>152.99</ele>
        <time>2012-11-18T08:40:10Z</time>
      </trkpt>
      <trkpt lat="44.56165" lon="0.84624">
        <ele>153.47</ele>
        <time>2012-11-18T08:40:33Z</time>
      </trkpt>
      <trkpt lat="44.56146" lon="0.84614">
        <ele>152.99</ele>
        <time>2012-11-18T08:40:49Z</time>
      </trkpt>
      <trkpt lat="44.56136" lon="0.84609">
        <ele>151.54</ele>
        <time>2012-11-18T08:40:51Z</time>
      </trkpt>
      <trkpt lat="44.56097" lon="0.8459">
        <ele>143.85</ele>
        <time>2012-11-18T08:41:00Z</time>
      </trkpt>
      <trkpt lat="44.56101" lon="0.84512">
        <ele>137.13</ele>
        <time>2012-11-18T08:41:10Z</time>
      </trkpt>
      <trkpt lat="44.56109" lon="0.84428">
        <ele>131.84</ele>
        <time>2012-11-18T08:41:17Z</time>
      </trkpt>
      <trkpt lat="44.56108" lon="0.84262">
        <ele>125.11</ele>
        <time>2012-11-18T08:41:29Z</time>
      </trkpt>
      <trkpt lat="44.56123" lon="0.84177">
        <ele>120.3</ele>
        <time>2012-11-18T08:41:35Z</time>
      </trkpt>
      <trkpt lat="44.56134" lon="0.84152">
        <ele>116.94</ele>
        <time>2012-11-18T08:41:41Z</time>
      </trkpt>
      <trkpt lat="44.56119" lon="0.84151">
        <ele>115.01</ele>
        <time>2012-11-18T08:41:46Z</time>
      </trkpt>
      <trkpt lat="44.56098" lon="0.84152">
        <ele>114.53</ele>
        <time>2012-11-18T08:41:50Z</time>
      </trkpt>
      <trkpt lat="44.56058" lon="0.84128">
        <ele>113.09</ele>
        <time>2012-11-18T08:41:58Z</time>
      </trkpt>
      <trkpt lat="44.5605" lon="0.84118">
        <ele>113.09</ele>
        <time>2012-11-18T08:42:00Z</time>
      </trkpt>
      <trkpt lat="44.56036" lon="0.84108">
        <ele>113.57</ele>
        <time>2012-11-18T08:42:03Z</time>
      </trkpt>
      <trkpt lat="44.5602" lon="0.84099">
        <ele>114.05</ele>
        <time>2012-11-18T08:42:06Z</time>
      </trkpt>
      <trkpt lat="44.5598" lon="0.84087">
        <ele>115.01</ele>
        <time>2012-11-18T08:42:15Z</time>
      </trkpt>
      <trkpt lat="44.55963" lon="0.84089">
        <ele>116.46</ele>
        <time>2012-11-18T08:42:19Z</time>
      </trkpt>
      <trkpt lat="44.55953" lon="0.8409">
        <ele>117.42</ele>
        <time>2012-11-18T08:42:21Z</time>
      </trkpt>
      <trkpt lat="44.55917" lon="0.84114">
        <ele>122.71</ele>
        <time>2012-11-18T08:42:32Z</time>
      </trkpt>
      <trkpt lat="44.55909" lon="0.84124">
        <ele>123.67</ele>
        <time>2012-11-18T08:42:36Z</time>
      </trkpt>
      <trkpt lat="44.55898" lon="0.84127">
        <ele>124.15</ele>
        <time>2012-11-18T08:42:41Z</time>
      </trkpt>
      <trkpt lat="44.55891" lon="0.84158">
        <ele>123.67</ele>
        <time>2012-11-18T08:42:53Z</time>
      </trkpt>
      <trkpt lat="44.55886" lon="0.84163">
        <ele>124.15</ele>
        <time>2012-11-18T08:43:04Z</time>
      </trkpt>
      <trkpt lat="44.55885" lon="0.8416">
        <ele>127.51</ele>
        <time>2012-11-18T08:43:25Z</time>
      </trkpt>
      <trkpt lat="44.55869" lon="0.84157">
        <ele>128.47</ele>
        <time>2012-11-18T08:43:35Z</time>
      </trkpt>
      <trkpt lat="44.55861" lon="0.8416">
        <ele>128.47</ele>
        <time>2012-11-18T08:43:37Z</time>
      </trkpt>
      <trkpt lat="44.55857" lon="0.84168">
        <ele>129.43</ele>
        <time>2012-11-18T08:43:41Z</time>
      </trkpt>
      <trkpt lat="44.55856" lon="0.84182">
        <ele>130.4</ele>
        <time>2012-11-18T08:43:45Z</time>
      </trkpt>
      <trkpt lat="44.55853" lon="0.84196">
        <ele>130.4</ele>
        <time>2012-11-18T08:43:49Z</time>
      </trkpt>
      <trkpt lat="44.55835" lon="0.84219">
        <ele>129.92</ele>
        <time>2012-11-18T08:43:55Z</time>
      </trkpt>
      <trkpt lat="44.55803" lon="0.84216">
        <ele>128.95</ele>
        <time>2012-11-18T08:44:03Z</time>
      </trkpt>
      <trkpt lat="44.55792" lon="0.84216">
        <ele>128.47</ele>
        <time>2012-11-18T08:44:16Z</time>
      </trkpt>
      <trkpt lat="44.55788" lon="0.84216">
        <ele>130.4</ele>
        <time>2012-11-18T08:44:29Z</time>
      </trkpt>
      <trkpt lat="44.55788" lon="0.84215">
        <ele>129.43</ele>
        <time>2012-11-18T08:44:48Z</time>
      </trkpt>
      <trkpt lat="44.55783" lon="0.84212">
        <ele>128.95</ele>
        <time>2012-11-18T08:45:09Z</time>
      </trkpt>
      <trkpt lat="44.55759" lon="0.84191">
        <ele>130.88</ele>
        <time>2012-11-18T08:45:18Z</time>
      </trkpt>
      <trkpt lat="44.55748" lon="0.84178">
        <ele>129.92</ele>
        <time>2012-11-18T08:45:23Z</time>
      </trkpt>
      <trkpt lat="44.55754" lon="0.84145">
        <ele>126.55</ele>
        <time>2012-11-18T08:45:34Z</time>
      </trkpt>
      <trkpt lat="44.55775" lon="0.84107">
        <ele>127.99</ele>
        <time>2012-11-18T08:45:47Z</time>
      </trkpt>
      <trkpt lat="44.55779" lon="0.84098">
        <ele>127.03</ele>
        <time>2012-11-18T08:45:49Z</time>
      </trkpt>
      <trkpt lat="44.55793" lon="0.8406">
        <ele>122.71</ele>
        <time>2012-11-18T08:45:55Z</time>
      </trkpt>
      <trkpt lat="44.55801" lon="0.84023">
        <ele>116.94</ele>
        <time>2012-11-18T08:46:04Z</time>
      </trkpt>
      <trkpt lat="44.55807" lon="0.84013">
        <ele>115.01</ele>
        <time>2012-11-18T08:46:07Z</time>
      </trkpt>
      <trkpt lat="44.55836" lon="0.83988">
        <ele>112.13</ele>
        <time>2012-11-18T08:46:14Z</time>
      </trkpt>
      <trkpt lat="44.55857" lon="0.83956">
        <ele>115.5</ele>
        <time>2012-11-18T08:46:26Z</time>
      </trkpt>
      <trkpt lat="44.55874" lon="0.83921">
        <ele>118.38</ele>
        <time>2012-11-18T08:46:40Z</time>
      </trkpt>
      <trkpt lat="44.55886" lon="0.83896">
        <ele>124.15</ele>
        <time>2012-11-18T08:46:53Z</time>
      </trkpt>
      <trkpt lat="44.55903" lon="0.8387">
        <ele>129.92</ele>
        <time>2012-11-18T08:47:08Z</time>
      </trkpt>
      <trkpt lat="44.55918" lon="0.83834">
        <ele>134.24</ele>
        <time>2012-11-18T08:47:24Z</time>
      </trkpt>
      <trkpt lat="44.55943" lon="0.83798">
        <ele>136.16</ele>
        <time>2012-11-18T08:47:42Z</time>
      </trkpt>
      <trkpt lat="44.55958" lon="0.83776">
        <ele>137.61</ele>
        <time>2012-11-18T08:47:57Z</time>
      </trkpt>
      <trkpt lat="44.55959" lon="0.83771">
        <ele>139.53</ele>
        <time>2012-11-18T08:48:10Z</time>
      </trkpt>
      <trkpt lat="44.55959" lon="0.8377">
        <ele>142.41</ele>
        <time>2012-11-18T08:48:24Z</time>
      </trkpt>
      <trkpt lat="44.55961" lon="0.8377">
        <ele>140.01</ele>
        <time>2012-11-18T08:48:57Z</time>
      </trkpt>
      <trkpt lat="44.55959" lon="0.83771">
        <ele>138.57</ele>
        <time>2012-11-18T08:49:13Z</time>
      </trkpt>
      <trkpt lat="44.55958" lon="0.83772">
        <ele>140.49</ele>
        <time>2012-11-18T08:49:28Z</time>
      </trkpt>
      <trkpt lat="44.55958" lon="0.83773">
        <ele>142.41</ele>
        <time>2012-11-18T08:49:48Z</time>
      </trkpt>
      <trkpt lat="44.55958" lon="0.8377">
        <ele>143.85</ele>
        <time>2012-11-18T08:50:09Z</time>
      </trkpt>
      <trkpt lat="44.55959" lon="0.8377">
        <ele>143.37</ele>
        <time>2012-11-18T08:50:27Z</time>
      </trkpt>
      <trkpt lat="44.55958" lon="0.83771">
        <ele>142.41</ele>
        <time>2012-11-18T08:50:44Z</time>
      </trkpt>
      <trkpt lat="44.55958" lon="0.8377">
        <ele>143.37</ele>
        <time>2012-11-18T08:50:59Z</time>
      </trkpt>
      <trkpt lat="44.55959" lon="0.83771">
        <ele>142.89</ele>
        <time>2012-11-18T08:51:24Z</time>
      </trkpt>
      <trkpt lat="44.5596" lon="0.8377">
        <ele>142.89</ele>
        <time>2012-11-18T08:51:29Z</time>
      </trkpt>
      <trkpt lat="44.55978" lon="0.83738">
        <ele>142.89</ele>
        <time>2012-11-18T08:51:43Z</time>
      </trkpt>
      <trkpt lat="44.55998" lon="0.83702">
        <ele>142.89</ele>
        <time>2012-11-18T08:51:56Z</time>
      </trkpt>
      <trkpt lat="44.56028" lon="0.83656">
        <ele>142.89</ele>
        <time>2012-11-18T08:52:10Z</time>
      </trkpt>
      <trkpt lat="44.56074" lon="0.83612">
        <ele>140.97</ele>
        <time>2012-11-18T08:52:23Z</time>
      </trkpt>
      <trkpt lat="44.56129" lon="0.83565">
        <ele>137.13</ele>
        <time>2012-11-18T08:52:34Z</time>
      </trkpt>
      <trkpt lat="44.56164" lon="0.83539">
        <ele>139.05</ele>
        <time>2012-11-18T08:52:44Z</time>
      </trkpt>
      <trkpt lat="44.56186" lon="0.83556">
        <ele>141.45</ele>
        <time>2012-11-18T08:52:53Z</time>
      </trkpt>
      <trkpt lat="44.56215" lon="0.83567">
        <ele>143.85</ele>
        <time>2012-11-18T08:53:04Z</time>
      </trkpt>
      <trkpt lat="44.5624" lon="0.8357">
        <ele>145.78</ele>
        <time>2012-11-18T08:53:14Z</time>
      </trkpt>
      <trkpt lat="44.5629" lon="0.83581">
        <ele>145.78</ele>
        <time>2012-11-18T08:53:29Z</time>
      </trkpt>
      <trkpt lat="44.56345" lon="0.83556">
        <ele>149.14</ele>
        <time>2012-11-18T08:53:44Z</time>
      </trkpt>
      <trkpt lat="44.56375" lon="0.83545">
        <ele>150.58</ele>
        <time>2012-11-18T08:53:52Z</time>
      </trkpt>
      <trkpt lat="44.56407" lon="0.83507">
        <ele>152.51</ele>
        <time>2012-11-18T08:54:05Z</time>
      </trkpt>
      <trkpt lat="44.56434" lon="0.83486">
        <ele>153.47</ele>
        <time>2012-11-18T08:54:19Z</time>
      </trkpt>
      <trkpt lat="44.56469" lon="0.83476">
        <ele>151.54</ele>
        <time>2012-11-18T08:54:32Z</time>
      </trkpt>
      <trkpt lat="44.56509" lon="0.83499">
        <ele>151.06</ele>
        <time>2012-11-18T08:54:45Z</time>
      </trkpt>
      <trkpt lat="44.56562" lon="0.83537">
        <ele>151.06</ele>
        <time>2012-11-18T08:54:58Z</time>
      </trkpt>
      <trkpt lat="44.56631" lon="0.8358">
        <ele>154.91</ele>
        <time>2012-11-18T08:55:13Z</time>
      </trkpt>
      <trkpt lat="44.56685" lon="0.836">
        <ele>158.27</ele>
        <time>2012-11-18T08:55:26Z</time>
      </trkpt>
      <trkpt lat="44.56721" lon="0.83625">
        <ele>160.68</ele>
        <time>2012-11-18T08:55:38Z</time>
      </trkpt>
      <trkpt lat="44.56748" lon="0.8367">
        <ele>162.12</ele>
        <time>2012-11-18T08:55:52Z</time>
      </trkpt>
      <trkpt lat="44.56765" lon="0.83703">
        <ele>162.12</ele>
        <time>2012-11-18T08:56:06Z</time>
      </trkpt>
      <trkpt lat="44.56771" lon="0.83714">
        <ele>161.64</ele>
        <time>2012-11-18T08:56:13Z</time>
      </trkpt>
      <trkpt lat="44.5678" lon="0.83715">
        <ele>162.12</ele>
        <time>2012-11-18T08:56:19Z</time>
      </trkpt>
      <trkpt lat="44.5682" lon="0.83692">
        <ele>161.64</ele>
        <time>2012-11-18T08:56:33Z</time>
      </trkpt>
      <trkpt lat="44.56857" lon="0.8366">
        <ele>159.72</ele>
        <time>2012-11-18T08:56:45Z</time>
      </trkpt>
      <trkpt lat="44.56896" lon="0.8362">
        <ele>155.87</ele>
        <time>2012-11-18T08:56:57Z</time>
      </trkpt>
      <trkpt lat="44.56898" lon="0.83619">
        <ele>155.87</ele>
        <time>2012-11-18T08:56:58Z</time>
      </trkpt>
      <trkpt lat="44.56922" lon="0.83654">
        <ele>158.75</ele>
        <time>2012-11-18T08:57:08Z</time>
      </trkpt>
      <trkpt lat="44.56924" lon="0.8366">
        <ele>158.75</ele>
        <time>2012-11-18T08:57:09Z</time>
      </trkpt>
      <trkpt lat="44.56963" lon="0.83742">
        <ele>162.12</ele>
        <time>2012-11-18T08:57:28Z</time>
      </trkpt>
      <trkpt lat="44.56955" lon="0.83786">
        <ele>162.12</ele>
        <time>2012-11-18T08:57:38Z</time>
      </trkpt>
      <trkpt lat="44.56937" lon="0.83799">
        <ele>161.64</ele>
        <time>2012-11-18T08:57:43Z</time>
      </trkpt>
      <trkpt lat="44.56916" lon="0.83814">
        <ele>159.72</ele>
        <time>2012-11-18T08:57:48Z</time>
      </trkpt>
      <trkpt lat="44.56899" lon="0.83836">
        <ele>158.27</ele>
        <time>2012-11-18T08:57:52Z</time>
      </trkpt>
      <trkpt lat="44.56881" lon="0.83905">
        <ele>155.87</ele>
        <time>2012-11-18T08:58:01Z</time>
      </trkpt>
      <trkpt lat="44.56879" lon="0.83921">
        <ele>156.35</ele>
        <time>2012-11-18T08:58:03Z</time>
      </trkpt>
      <trkpt lat="44.56881" lon="0.83944">
        <ele>156.35</ele>
        <time>2012-11-18T08:58:06Z</time>
      </trkpt>
      <trkpt lat="44.56893" lon="0.83984">
        <ele>158.27</ele>
        <time>2012-11-18T08:58:12Z</time>
      </trkpt>
      <trkpt lat="44.56907" lon="0.8401">
        <ele>159.24</ele>
        <time>2012-11-18T08:58:17Z</time>
      </trkpt>
      <trkpt lat="44.5695" lon="0.84117">
        <ele>158.75</ele>
        <time>2012-11-18T08:58:33Z</time>
      </trkpt>
      <trkpt lat="44.56963" lon="0.84157">
        <ele>158.75</ele>
        <time>2012-11-18T08:58:38Z</time>
      </trkpt>
      <trkpt lat="44.56991" lon="0.84175">
        <ele>161.16</ele>
        <time>2012-11-18T08:58:44Z</time>
      </trkpt>
      <trkpt lat="44.57015" lon="0.84174">
        <ele>163.08</ele>
        <time>2012-11-18T08:58:49Z</time>
      </trkpt>
      <trkpt lat="44.57073" lon="0.84158">
        <ele>163.08</ele>
        <time>2012-11-18T08:59:01Z</time>
      </trkpt>
      <trkpt lat="44.57101" lon="0.84176">
        <ele>161.64</ele>
        <time>2012-11-18T08:59:07Z</time>
      </trkpt>
      <trkpt lat="44.57137" lon="0.84286">
        <ele>159.24</ele>
        <time>2012-11-18T08:59:22Z</time>
      </trkpt>
      <trkpt lat="44.57159" lon="0.84363">
        <ele>162.12</ele>
        <time>2012-11-18T08:59:36Z</time>
      </trkpt>
      <trkpt lat="44.57174" lon="0.84404">
        <ele>165.96</ele>
        <time>2012-11-18T08:59:49Z</time>
      </trkpt>
      <trkpt lat="44.57194" lon="0.84465">
        <ele>168.37</ele>
        <time>2012-11-18T09:00:07Z</time>
      </trkpt>
      <trkpt lat="44.57201" lon="0.84484">
        <ele>169.33</ele>
        <time>2012-11-18T09:00:16Z</time>
      </trkpt>
      <trkpt lat="44.57206" lon="0.84471">
        <ele>171.25</ele>
        <time>2012-11-18T09:00:31Z</time>
      </trkpt>
      <trkpt lat="44.57205" lon="0.84453">
        <ele>172.69</ele>
        <time>2012-11-18T09:00:46Z</time>
      </trkpt>
      <trkpt lat="44.57207" lon="0.84404">
        <ele>171.73</ele>
        <time>2012-11-18T09:00:55Z</time>
      </trkpt>
      <trkpt lat="44.57212" lon="0.84386">
        <ele>170.29</ele>
        <time>2012-11-18T09:00:58Z</time>
      </trkpt>
      <trkpt lat="44.57224" lon="0.84363">
        <ele>168.37</ele>
        <time>2012-11-18T09:01:02Z</time>
      </trkpt>
      <trkpt lat="44.5723" lon="0.8435">
        <ele>167.41</ele>
        <time>2012-11-18T09:01:04Z</time>
      </trkpt>
      <trkpt lat="44.57236" lon="0.84309">
        <ele>165</ele>
        <time>2012-11-18T09:01:09Z</time>
      </trkpt>
      <trkpt lat="44.57255" lon="0.84254">
        <ele>161.16</ele>
        <time>2012-11-18T09:01:16Z</time>
      </trkpt>
      <trkpt lat="44.57264" lon="0.84245">
        <ele>160.2</ele>
        <time>2012-11-18T09:01:18Z</time>
      </trkpt>
      <trkpt lat="44.57272" lon="0.84222">
        <ele>160.2</ele>
        <time>2012-11-18T09:01:22Z</time>
      </trkpt>
      <trkpt lat="44.57279" lon="0.84184">
        <ele>159.24</ele>
        <time>2012-11-18T09:01:29Z</time>
      </trkpt>
      <trkpt lat="44.57294" lon="0.84166">
        <ele>159.24</ele>
        <time>2012-11-18T09:01:32Z</time>
      </trkpt>
      <trkpt lat="44.57311" lon="0.84144">
        <ele>159.24</ele>
        <time>2012-11-18T09:01:35Z</time>
      </trkpt>
      <trkpt lat="44.57331" lon="0.84114">
        <ele>158.27</ele>
        <time>2012-11-18T09:01:39Z</time>
      </trkpt>
      <trkpt lat="44.57339" lon="0.84084">
        <ele>157.31</ele>
        <time>2012-11-18T09:01:42Z</time>
      </trkpt>
      <trkpt lat="44.57377" lon="0.84033">
        <ele>153.47</ele>
        <time>2012-11-18T09:01:49Z</time>
      </trkpt>
      <trkpt lat="44.57382" lon="0.83999">
        <ele>151.06</ele>
        <time>2012-11-18T09:01:53Z</time>
      </trkpt>
      <trkpt lat="44.57392" lon="0.83949">
        <ele>147.7</ele>
        <time>2012-11-18T09:01:58Z</time>
      </trkpt>
      <trkpt lat="44.57403" lon="0.83927">
        <ele>145.78</ele>
        <time>2012-11-18T09:02:01Z</time>
      </trkpt>
      <trkpt lat="44.57414" lon="0.83888">
        <ele>140.97</ele>
        <time>2012-11-18T09:02:07Z</time>
      </trkpt>
      <trkpt lat="44.57417" lon="0.83885">
        <ele>140.01</ele>
        <time>2012-11-18T09:02:09Z</time>
      </trkpt>
      <trkpt lat="44.5741" lon="0.83871">
        <ele>140.01</ele>
        <time>2012-11-18T09:02:15Z</time>
      </trkpt>
      <trkpt lat="44.57381" lon="0.83843">
        <ele>141.93</ele>
        <time>2012-11-18T09:02:30Z</time>
      </trkpt>
      <trkpt lat="44.57347" lon="0.83813">
        <ele>142.89</ele>
        <time>2012-11-18T09:02:43Z</time>
      </trkpt>
      <trkpt lat="44.57336" lon="0.83805">
        <ele>143.37</ele>
        <time>2012-11-18T09:02:47Z</time>
      </trkpt>
      <trkpt lat="44.57338" lon="0.83787">
        <ele>143.37</ele>
        <time>2012-11-18T09:02:51Z</time>
      </trkpt>
      <trkpt lat="44.57344" lon="0.83776">
        <ele>143.37</ele>
        <time>2012-11-18T09:02:53Z</time>
      </trkpt>
      <trkpt lat="44.57377" lon="0.83677">
        <ele>139.53</ele>
        <time>2012-11-18T09:03:06Z</time>
      </trkpt>
      <trkpt lat="44.5738" lon="0.83662">
        <ele>139.05</ele>
        <time>2012-11-18T09:03:08Z</time>
      </trkpt>
      <trkpt lat="44.57412" lon="0.8359">
        <ele>136.16</ele>
        <time>2012-11-18T09:03:18Z</time>
      </trkpt>
      <trkpt lat="44.57481" lon="0.83475">
        <ele>133.28</ele>
        <time>2012-11-18T09:03:34Z</time>
      </trkpt>
      <trkpt lat="44.57535" lon="0.83348">
        <ele>131.36</ele>
        <time>2012-11-18T09:03:46Z</time>
      </trkpt>
      <trkpt lat="44.57567" lon="0.83271">
        <ele>129.43</ele>
        <time>2012-11-18T09:03:52Z</time>
      </trkpt>
      <trkpt lat="44.57572" lon="0.83186">
        <ele>127.51</ele>
        <time>2012-11-18T09:03:58Z</time>
      </trkpt>
      <trkpt lat="44.57509" lon="0.82987">
        <ele>125.59</ele>
        <time>2012-11-18T09:04:12Z</time>
      </trkpt>
      <trkpt lat="44.57478" lon="0.82906">
        <ele>125.11</ele>
        <time>2012-11-18T09:04:18Z</time>
      </trkpt>
      <trkpt lat="44.5746" lon="0.8285">
        <ele>123.67</ele>
        <time>2012-11-18T09:04:22Z</time>
      </trkpt>
      <trkpt lat="44.57429" lon="0.8276">
        <ele>123.67</ele>
        <time>2012-11-18T09:04:29Z</time>
      </trkpt>
      <trkpt lat="44.57426" lon="0.82711">
        <ele>122.71</ele>
        <time>2012-11-18T09:04:33Z</time>
      </trkpt>
      <trkpt lat="44.57472" lon="0.82582">
        <ele>113.09</ele>
        <time>2012-11-18T09:04:45Z</time>
      </trkpt>
      <trkpt lat="44.57481" lon="0.82566">
        <ele>113.09</ele>
        <time>2012-11-18T09:04:52Z</time>
      </trkpt>
      <trkpt lat="44.57477" lon="0.8256">
        <ele>116.46</ele>
        <time>2012-11-18T09:05:09Z</time>
      </trkpt>
      <trkpt lat="44.57475" lon="0.82555">
        <ele>122.71</ele>
        <time>2012-11-18T09:05:31Z</time>
      </trkpt>
      <trkpt lat="44.57482" lon="0.82539">
        <ele>122.22</ele>
        <time>2012-11-18T09:05:43Z</time>
      </trkpt>
      <trkpt lat="44.57493" lon="0.8252">
        <ele>119.82</ele>
        <time>2012-11-18T09:05:47Z</time>
      </trkpt>
      <trkpt lat="44.57501" lon="0.82508">
        <ele>117.42</ele>
        <time>2012-11-18T09:05:50Z</time>
      </trkpt>
      <trkpt lat="44.57489" lon="0.8249">
        <ele>115.01</ele>
        <time>2012-11-18T09:05:57Z</time>
      </trkpt>
      <trkpt lat="44.5748" lon="0.82486">
        <ele>115.5</ele>
        <time>2012-11-18T09:06:00Z</time>
      </trkpt>
      <trkpt lat="44.57426" lon="0.82457">
        <ele>118.86</ele>
        <time>2012-11-18T09:06:16Z</time>
      </trkpt>
      <trkpt lat="44.57381" lon="0.82432">
        <ele>121.74</ele>
        <time>2012-11-18T09:06:29Z</time>
      </trkpt>
      <trkpt lat="44.57334" lon="0.82417">
        <ele>125.59</ele>
        <time>2012-11-18T09:06:43Z</time>
      </trkpt>
      <trkpt lat="44.5728" lon="0.82396">
        <ele>129.92</ele>
        <time>2012-11-18T09:06:58Z</time>
      </trkpt>
      <trkpt lat="44.57234" lon="0.82406">
        <ele>133.76</ele>
        <time>2012-11-18T09:07:11Z</time>
      </trkpt>
      <trkpt lat="44.57185" lon="0.82391">
        <ele>135.68</ele>
        <time>2012-11-18T09:07:25Z</time>
      </trkpt>
      <trkpt lat="44.57152" lon="0.82365">
        <ele>139.05</ele>
        <time>2012-11-18T09:07:39Z</time>
      </trkpt>
      <trkpt lat="44.57118" lon="0.82335">
        <ele>142.41</ele>
        <time>2012-11-18T09:07:53Z</time>
      </trkpt>
      <trkpt lat="44.57096" lon="0.82285">
        <ele>144.34</ele>
        <time>2012-11-18T09:08:06Z</time>
      </trkpt>
      <trkpt lat="44.57075" lon="0.82228">
        <ele>143.85</ele>
        <time>2012-11-18T09:08:20Z</time>
      </trkpt>
      <trkpt lat="44.57051" lon="0.82188">
        <ele>140.01</ele>
        <time>2012-11-18T09:08:31Z</time>
      </trkpt>
      <trkpt lat="44.57042" lon="0.82183">
        <ele>139.53</ele>
        <time>2012-11-18T09:08:34Z</time>
      </trkpt>
      <trkpt lat="44.5701" lon="0.82186">
        <ele>140.01</ele>
        <time>2012-11-18T09:08:45Z</time>
      </trkpt>
      <trkpt lat="44.5698" lon="0.82189">
        <ele>137.61</ele>
        <time>2012-11-18T09:08:56Z</time>
      </trkpt>
      <trkpt lat="44.56945" lon="0.82191">
        <ele>136.16</ele>
        <time>2012-11-18T09:09:09Z</time>
      </trkpt>
      <trkpt lat="44.56916" lon="0.82169">
        <ele>133.28</ele>
        <time>2012-11-18T09:09:21Z</time>
      </trkpt>
      <trkpt lat="44.56892" lon="0.82157">
        <ele>132.8</ele>
        <time>2012-11-18T09:09:30Z</time>
      </trkpt>
      <trkpt lat="44.56887" lon="0.82158">
        <ele>132.32</ele>
        <time>2012-11-18T09:09:32Z</time>
      </trkpt>
      <trkpt lat="44.56876" lon="0.82159">
        <ele>133.28</ele>
        <time>2012-11-18T09:09:40Z</time>
      </trkpt>
      <trkpt lat="44.56864" lon="0.82162">
        <ele>133.28</ele>
        <time>2012-11-18T09:09:48Z</time>
      </trkpt>
      <trkpt lat="44.56845" lon="0.82163">
        <ele>133.28</ele>
        <time>2012-11-18T09:10:00Z</time>
      </trkpt>
      <trkpt lat="44.56824" lon="0.82156">
        <ele>134.72</ele>
        <time>2012-11-18T09:10:13Z</time>
      </trkpt>
      <trkpt lat="44.56821" lon="0.82155">
        <ele>135.2</ele>
        <time>2012-11-18T09:10:21Z</time>
      </trkpt>
      <trkpt lat="44.56828" lon="0.82148">
        <ele>134.72</ele>
        <time>2012-11-18T09:10:27Z</time>
      </trkpt>
      <trkpt lat="44.56826" lon="0.82136">
        <ele>135.68</ele>
        <time>2012-11-18T09:10:32Z</time>
      </trkpt>
      <trkpt lat="44.56807" lon="0.82105">
        <ele>136.64</ele>
        <time>2012-11-18T09:10:49Z</time>
      </trkpt>
      <trkpt lat="44.56803" lon="0.82096">
        <ele>137.61</ele>
        <time>2012-11-18T09:10:54Z</time>
      </trkpt>
      <trkpt lat="44.56797" lon="0.82084">
        <ele>138.57</ele>
        <time>2012-11-18T09:11:00Z</time>
      </trkpt>
      <trkpt lat="44.56788" lon="0.82064">
        <ele>139.53</ele>
        <time>2012-11-18T09:11:11Z</time>
      </trkpt>
      <trkpt lat="44.56771" lon="0.82039">
        <ele>140.97</ele>
        <time>2012-11-18T09:11:23Z</time>
      </trkpt>
      <trkpt lat="44.56742" lon="0.81992">
        <ele>139.05</ele>
        <time>2012-11-18T09:11:38Z</time>
      </trkpt>
      <trkpt lat="44.56727" lon="0.81969">
        <ele>138.57</ele>
        <time>2012-11-18T09:11:45Z</time>
      </trkpt>
      <trkpt lat="44.56751" lon="0.8193">
        <ele>136.16</ele>
        <time>2012-11-18T09:11:55Z</time>
      </trkpt>
      <trkpt lat="44.56757" lon="0.81921">
        <ele>135.68</ele>
        <time>2012-11-18T09:11:57Z</time>
      </trkpt>
      <trkpt lat="44.56771" lon="0.81905">
        <ele>134.72</ele>
        <time>2012-11-18T09:12:01Z</time>
      </trkpt>
      <trkpt lat="44.56782" lon="0.81902">
        <ele>134.24</ele>
        <time>2012-11-18T09:12:04Z</time>
      </trkpt>
      <trkpt lat="44.56783" lon="0.81884">
        <ele>133.28</ele>
        <time>2012-11-18T09:12:10Z</time>
      </trkpt>
      <trkpt lat="44.56753" lon="0.81829">
        <ele>135.2</ele>
        <time>2012-11-18T09:12:24Z</time>
      </trkpt>
      <trkpt lat="44.56721" lon="0.8176">
        <ele>138.09</ele>
        <time>2012-11-18T09:12:42Z</time>
      </trkpt>
      <trkpt lat="44.56688" lon="0.81669">
        <ele>140.01</ele>
        <time>2012-11-18T09:13:01Z</time>
      </trkpt>
      <trkpt lat="44.56658" lon="0.81604">
        <ele>143.85</ele>
        <time>2012-11-18T09:13:17Z</time>
      </trkpt>
      <trkpt lat="44.5663" lon="0.81577">
        <ele>146.74</ele>
        <time>2012-11-18T09:13:28Z</time>
      </trkpt>
      <trkpt lat="44.56606" lon="0.81569">
        <ele>147.22</ele>
        <time>2012-11-18T09:13:39Z</time>
      </trkpt>
      <trkpt lat="44.56585" lon="0.81604">
        <ele>146.74</ele>
        <time>2012-11-18T09:13:54Z</time>
      </trkpt>
      <trkpt lat="44.56566" lon="0.81638">
        <ele>145.78</ele>
        <time>2012-11-18T09:14:04Z</time>
      </trkpt>
      <trkpt lat="44.56521" lon="0.81697">
        <ele>143.85</ele>
        <time>2012-11-18T09:14:21Z</time>
      </trkpt>
      <trkpt lat="44.56463" lon="0.81751">
        <ele>141.93</ele>
        <time>2012-11-18T09:14:38Z</time>
      </trkpt>
      <trkpt lat="44.56397" lon="0.81824">
        <ele>142.89</ele>
        <time>2012-11-18T09:14:58Z</time>
      </trkpt>
      <trkpt lat="44.56329" lon="0.81909">
        <ele>144.34</ele>
        <time>2012-11-18T09:15:18Z</time>
      </trkpt>
      <trkpt lat="44.56304" lon="0.8194">
        <ele>144.34</ele>
        <time>2012-11-18T09:15:26Z</time>
      </trkpt>
      <trkpt lat="44.56248" lon="0.81992">
        <ele>144.82</ele>
        <time>2012-11-18T09:15:42Z</time>
      </trkpt>
      <trkpt lat="44.56236" lon="0.81981">
        <ele>145.3</ele>
        <time>2012-11-18T09:15:47Z</time>
      </trkpt>
      <trkpt lat="44.56208" lon="0.81913">
        <ele>145.78</ele>
        <time>2012-11-18T09:16:03Z</time>
      </trkpt>
      <trkpt lat="44.56203" lon="0.81904">
        <ele>145.78</ele>
        <time>2012-11-18T09:16:05Z</time>
      </trkpt>
      <trkpt lat="44.56189" lon="0.81898">
        <ele>145.78</ele>
        <time>2012-11-18T09:16:09Z</time>
      </trkpt>
      <trkpt lat="44.56127" lon="0.819">
        <ele>147.22</ele>
        <time>2012-11-18T09:16:26Z</time>
      </trkpt>
      <trkpt lat="44.56108" lon="0.81876">
        <ele>146.26</ele>
        <time>2012-11-18T09:16:34Z</time>
      </trkpt>
      <trkpt lat="44.5609" lon="0.81883">
        <ele>146.74</ele>
        <time>2012-11-18T09:16:40Z</time>
      </trkpt>
      <trkpt lat="44.56048" lon="0.81914">
        <ele>148.66</ele>
        <time>2012-11-18T09:16:55Z</time>
      </trkpt>
      <trkpt lat="44.56019" lon="0.81907">
        <ele>152.03</ele>
        <time>2012-11-18T09:17:08Z</time>
      </trkpt>
      <trkpt lat="44.55993" lon="0.81902">
        <ele>157.79</ele>
        <time>2012-11-18T09:17:22Z</time>
      </trkpt>
      <trkpt lat="44.5597" lon="0.81915">
        <ele>161.64</ele>
        <time>2012-11-18T09:17:37Z</time>
      </trkpt>
      <trkpt lat="44.55948" lon="0.81922">
        <ele>166.45</ele>
        <time>2012-11-18T09:17:52Z</time>
      </trkpt>
      <trkpt lat="44.55924" lon="0.81926">
        <ele>173.17</ele>
        <time>2012-11-18T09:18:06Z</time>
      </trkpt>
      <trkpt lat="44.55901" lon="0.81928">
        <ele>178.94</ele>
        <time>2012-11-18T09:18:21Z</time>
      </trkpt>
      <trkpt lat="44.5589" lon="0.81923">
        <ele>179.42</ele>
        <time>2012-11-18T09:18:34Z</time>
      </trkpt>
      <trkpt lat="44.55887" lon="0.81917">
        <ele>177.02</ele>
        <time>2012-11-18T09:18:46Z</time>
      </trkpt>
      <trkpt lat="44.5589" lon="0.81914">
        <ele>176.54</ele>
        <time>2012-11-18T09:18:57Z</time>
      </trkpt>
      <trkpt lat="44.55893" lon="0.81905">
        <ele>177.5</ele>
        <time>2012-11-18T09:19:08Z</time>
      </trkpt>
      <trkpt lat="44.55895" lon="0.81897">
        <ele>178.46</ele>
        <time>2012-11-18T09:19:21Z</time>
      </trkpt>
      <trkpt lat="44.55898" lon="0.81877">
        <ele>179.9</ele>
        <time>2012-11-18T09:19:35Z</time>
      </trkpt>
      <trkpt lat="44.55902" lon="0.81868">
        <ele>180.38</ele>
        <time>2012-11-18T09:19:51Z</time>
      </trkpt>
      <trkpt lat="44.559" lon="0.8187">
        <ele>182.79</ele>
        <time>2012-11-18T09:20:26Z</time>
      </trkpt>
      <trkpt lat="44.559" lon="0.81872">
        <ele>182.31</ele>
        <time>2012-11-18T09:20:54Z</time>
      </trkpt>
      <trkpt lat="44.55899" lon="0.81865">
        <ele>179.9</ele>
        <time>2012-11-18T09:21:29Z</time>
      </trkpt>
      <trkpt lat="44.55898" lon="0.81868">
        <ele>183.27</ele>
        <time>2012-11-18T09:21:56Z</time>
      </trkpt>
      <trkpt lat="44.55899" lon="0.81868">
        <ele>182.79</ele>
        <time>2012-11-18T09:22:32Z</time>
      </trkpt>
      <trkpt lat="44.55899" lon="0.81869">
        <ele>184.23</ele>
        <time>2012-11-18T09:23:03Z</time>
      </trkpt>
      <trkpt lat="44.55903" lon="0.81868">
        <ele>181.83</ele>
        <time>2012-11-18T09:23:34Z</time>
      </trkpt>
      <trkpt lat="44.55901" lon="0.81863">
        <ele>180.87</ele>
        <time>2012-11-18T09:24:05Z</time>
      </trkpt>
      <trkpt lat="44.559" lon="0.81842">
        <ele>179.42</ele>
        <time>2012-11-18T09:24:25Z</time>
      </trkpt>
      <trkpt lat="44.55898" lon="0.81837">
        <ele>179.9</ele>
        <time>2012-11-18T09:24:55Z</time>
      </trkpt>
      <trkpt lat="44.55898" lon="0.81838">
        <ele>179.42</ele>
        <time>2012-11-18T09:25:18Z</time>
      </trkpt>
      <trkpt lat="44.559" lon="0.8184">
        <ele>179.42</ele>
        <time>2012-11-18T09:25:47Z</time>
      </trkpt>
      <trkpt lat="44.559" lon="0.81841">
        <ele>179.42</ele>
        <time>2012-11-18T09:26:13Z</time>
      </trkpt>
      <trkpt lat="44.559" lon="0.8184">
        <ele>179.9</ele>
        <time>2012-11-18T09:26:37Z</time>
      </trkpt>
      <trkpt lat="44.55899" lon="0.8184">
        <ele>179.9</ele>
        <time>2012-11-18T09:27:01Z</time>
      </trkpt>
      <trkpt lat="44.55898" lon="0.81822">
        <ele>178.94</ele>
        <time>2012-11-18T09:27:11Z</time>
      </trkpt>
      <trkpt lat="44.55907" lon="0.81791">
        <ele>176.06</ele>
        <time>2012-11-18T09:27:16Z</time>
      </trkpt>
      <trkpt lat="44.55918" lon="0.81772">
        <ele>173.17</ele>
        <time>2012-11-18T09:27:21Z</time>
      </trkpt>
      <trkpt lat="44.55912" lon="0.81759">
        <ele>171.25</ele>
        <time>2012-11-18T09:27:26Z</time>
      </trkpt>
      <trkpt lat="44.55885" lon="0.81735">
        <ele>165</ele>
        <time>2012-11-18T09:27:36Z</time>
      </trkpt>
      <trkpt lat="44.55859" lon="0.81724">
        <ele>160.68</ele>
        <time>2012-11-18T09:27:45Z</time>
      </trkpt>
      <trkpt lat="44.55851" lon="0.81721">
        <ele>158.27</ele>
        <time>2012-11-18T09:27:48Z</time>
      </trkpt>
      <trkpt lat="44.55845" lon="0.81706">
        <ele>154.91</ele>
        <time>2012-11-18T09:27:52Z</time>
      </trkpt>
      <trkpt lat="44.55854" lon="0.81665">
        <ele>146.74</ele>
        <time>2012-11-18T09:28:00Z</time>
      </trkpt>
      <trkpt lat="44.55862" lon="0.8165">
        <ele>144.82</ele>
        <time>2012-11-18T09:28:13Z</time>
      </trkpt>
      <trkpt lat="44.55862" lon="0.81647">
        <ele>145.3</ele>
        <time>2012-11-18T09:28:23Z</time>
      </trkpt>
      <trkpt lat="44.55883" lon="0.81618">
        <ele>143.37</ele>
        <time>2012-11-18T09:28:35Z</time>
      </trkpt>
      <trkpt lat="44.55905" lon="0.81574">
        <ele>140.97</ele>
        <time>2012-11-18T09:28:46Z</time>
      </trkpt>
      <trkpt lat="44.55919" lon="0.81573">
        <ele>140.49</ele>
        <time>2012-11-18T09:28:52Z</time>
      </trkpt>
      <trkpt lat="44.55945" lon="0.81606">
        <ele>143.85</ele>
        <time>2012-11-18T09:29:10Z</time>
      </trkpt>
      <trkpt lat="44.5596" lon="0.8162">
        <ele>145.78</ele>
        <time>2012-11-18T09:29:21Z</time>
      </trkpt>
      <trkpt lat="44.55985" lon="0.81646">
        <ele>147.7</ele>
        <time>2012-11-18T09:29:35Z</time>
      </trkpt>
      <trkpt lat="44.5601" lon="0.81685">
        <ele>150.58</ele>
        <time>2012-11-18T09:29:51Z</time>
      </trkpt>
      <trkpt lat="44.56034" lon="0.81728">
        <ele>152.99</ele>
        <time>2012-11-18T09:30:08Z</time>
      </trkpt>
      <trkpt lat="44.56065" lon="0.81776">
        <ele>151.54</ele>
        <time>2012-11-18T09:30:24Z</time>
      </trkpt>
      <trkpt lat="44.56072" lon="0.81788">
        <ele>151.06</ele>
        <time>2012-11-18T09:30:27Z</time>
      </trkpt>
      <trkpt lat="44.5611" lon="0.81887">
        <ele>147.7</ele>
        <time>2012-11-18T09:30:44Z</time>
      </trkpt>
      <trkpt lat="44.56131" lon="0.81946">
        <ele>148.66</ele>
        <time>2012-11-18T09:30:57Z</time>
      </trkpt>
      <trkpt lat="44.5614" lon="0.81964">
        <ele>148.66</ele>
        <time>2012-11-18T09:31:01Z</time>
      </trkpt>
      <trkpt lat="44.56145" lon="0.81986">
        <ele>148.18</ele>
        <time>2012-11-18T09:31:05Z</time>
      </trkpt>
      <trkpt lat="44.56154" lon="0.82012">
        <ele>147.7</ele>
        <time>2012-11-18T09:31:10Z</time>
      </trkpt>
      <trkpt lat="44.56168" lon="0.82034">
        <ele>146.74</ele>
        <time>2012-11-18T09:31:15Z</time>
      </trkpt>
      <trkpt lat="44.56175" lon="0.8205">
        <ele>145.78</ele>
        <time>2012-11-18T09:31:19Z</time>
      </trkpt>
      <trkpt lat="44.56153" lon="0.82047">
        <ele>145.78</ele>
        <time>2012-11-18T09:31:27Z</time>
      </trkpt>
      <trkpt lat="44.56149" lon="0.82047">
        <ele>145.78</ele>
        <time>2012-11-18T09:31:28Z</time>
      </trkpt>
      <trkpt lat="44.56134" lon="0.82051">
        <ele>146.26</ele>
        <time>2012-11-18T09:31:36Z</time>
      </trkpt>
      <trkpt lat="44.56136" lon="0.8207">
        <ele>145.78</ele>
        <time>2012-11-18T09:31:42Z</time>
      </trkpt>
      <trkpt lat="44.56165" lon="0.82179">
        <ele>141.93</ele>
        <time>2012-11-18T09:31:57Z</time>
      </trkpt>
      <trkpt lat="44.56194" lon="0.82273">
        <ele>138.57</ele>
        <time>2012-11-18T09:32:11Z</time>
      </trkpt>
      <trkpt lat="44.5623" lon="0.82366">
        <ele>135.2</ele>
        <time>2012-11-18T09:32:23Z</time>
      </trkpt>
      <trkpt lat="44.56249" lon="0.82414">
        <ele>133.76</ele>
        <time>2012-11-18T09:32:30Z</time>
      </trkpt>
      <trkpt lat="44.56245" lon="0.82447">
        <ele>132.32</ele>
        <time>2012-11-18T09:32:35Z</time>
      </trkpt>
      <trkpt lat="44.56188" lon="0.82553">
        <ele>129.43</ele>
        <time>2012-11-18T09:32:51Z</time>
      </trkpt>
      <trkpt lat="44.56137" lon="0.82612">
        <ele>127.51</ele>
        <time>2012-11-18T09:33:02Z</time>
      </trkpt>
      <trkpt lat="44.56127" lon="0.82648">
        <ele>124.63</ele>
        <time>2012-11-18T09:33:08Z</time>
      </trkpt>
      <trkpt lat="44.56119" lon="0.82673">
        <ele>121.74</ele>
        <time>2012-11-18T09:33:13Z</time>
      </trkpt>
      <trkpt lat="44.56106" lon="0.82697">
        <ele>119.82</ele>
        <time>2012-11-18T09:33:18Z</time>
      </trkpt>
      <trkpt lat="44.56077" lon="0.82729">
        <ele>115.98</ele>
        <time>2012-11-18T09:33:28Z</time>
      </trkpt>
      <trkpt lat="44.56036" lon="0.82747">
        <ele>114.53</ele>
        <time>2012-11-18T09:33:37Z</time>
      </trkpt>
      <trkpt lat="44.56022" lon="0.82762">
        <ele>112.61</ele>
        <time>2012-11-18T09:33:45Z</time>
      </trkpt>
      <trkpt lat="44.56022" lon="0.82767">
        <ele>113.57</ele>
        <time>2012-11-18T09:33:59Z</time>
      </trkpt>
      <trkpt lat="44.5602" lon="0.82774">
        <ele>114.05</ele>
        <time>2012-11-18T09:34:10Z</time>
      </trkpt>
      <trkpt lat="44.56021" lon="0.82777">
        <ele>114.53</ele>
        <time>2012-11-18T09:34:23Z</time>
      </trkpt>
      <trkpt lat="44.56019" lon="0.82785">
        <ele>115.5</ele>
        <time>2012-11-18T09:34:31Z</time>
      </trkpt>
      <trkpt lat="44.56016" lon="0.82831">
        <ele>115.5</ele>
        <time>2012-11-18T09:34:46Z</time>
      </trkpt>
      <trkpt lat="44.56012" lon="0.8287">
        <ele>120.3</ele>
        <time>2012-11-18T09:34:59Z</time>
      </trkpt>
      <trkpt lat="44.56004" lon="0.82915">
        <ele>128.95</ele>
        <time>2012-11-18T09:35:14Z</time>
      </trkpt>
      <trkpt lat="44.55995" lon="0.82966">
        <ele>131.84</ele>
        <time>2012-11-18T09:35:29Z</time>
      </trkpt>
      <trkpt lat="44.55978" lon="0.83045">
        <ele>133.28</ele>
        <time>2012-11-18T09:35:48Z</time>
      </trkpt>
      <trkpt lat="44.5596" lon="0.83109">
        <ele>133.28</ele>
        <time>2012-11-18T09:36:05Z</time>
      </trkpt>
      <trkpt lat="44.55949" lon="0.8317">
        <ele>132.32</ele>
        <time>2012-11-18T09:36:21Z</time>
      </trkpt>
      <trkpt lat="44.55938" lon="0.8324">
        <ele>127.99</ele>
        <time>2012-11-18T09:36:36Z</time>
      </trkpt>
      <trkpt lat="44.55937" lon="0.83239">
        <ele>130.4</ele>
        <time>2012-11-18T09:36:47Z</time>
      </trkpt>
      <trkpt lat="44.55936" lon="0.83236">
        <ele>130.88</ele>
        <time>2012-11-18T09:37:02Z</time>
      </trkpt>
      <trkpt lat="44.55936" lon="0.83239">
        <ele>131.84</ele>
        <time>2012-11-18T09:37:14Z</time>
      </trkpt>
      <trkpt lat="44.55935" lon="0.83244">
        <ele>132.32</ele>
        <time>2012-11-18T09:37:30Z</time>
      </trkpt>
      <trkpt lat="44.55935" lon="0.83246">
        <ele>133.28</ele>
        <time>2012-11-18T09:37:36Z</time>
      </trkpt>
      <trkpt lat="44.55932" lon="0.83283">
        <ele>131.84</ele>
        <time>2012-11-18T09:37:51Z</time>
      </trkpt>
      <trkpt lat="44.55933" lon="0.83329">
        <ele>132.32</ele>
        <time>2012-11-18T09:38:04Z</time>
      </trkpt>
      <trkpt lat="44.55927" lon="0.83395">
        <ele>127.51</ele>
        <time>2012-11-18T09:38:15Z</time>
      </trkpt>
      <trkpt lat="44.55919" lon="0.83428">
        <ele>124.15</ele>
        <time>2012-11-18T09:38:23Z</time>
      </trkpt>
      <trkpt lat="44.55919" lon="0.83438">
        <ele>122.22</ele>
        <time>2012-11-18T09:38:29Z</time>
      </trkpt>
      <trkpt lat="44.55914" lon="0.83447">
        <ele>123.19</ele>
        <time>2012-11-18T09:38:38Z</time>
      </trkpt>
      <trkpt lat="44.55911" lon="0.83448">
        <ele>123.19</ele>
        <time>2012-11-18T09:38:40Z</time>
      </trkpt>
      <trkpt lat="44.55878" lon="0.8346">
        <ele>124.15</ele>
        <time>2012-11-18T09:38:53Z</time>
      </trkpt>
      <trkpt lat="44.55837" lon="0.83469">
        <ele>125.59</ele>
        <time>2012-11-18T09:39:07Z</time>
      </trkpt>
      <trkpt lat="44.55836" lon="0.8347">
        <ele>125.59</ele>
        <time>2012-11-18T09:39:08Z</time>
      </trkpt>
      <trkpt lat="44.55846" lon="0.83489">
        <ele>126.55</ele>
        <time>2012-11-18T09:39:17Z</time>
      </trkpt>
      <trkpt lat="44.55862" lon="0.83493">
        <ele>125.59</ele>
        <time>2012-11-18T09:39:22Z</time>
      </trkpt>
      <trkpt lat="44.55876" lon="0.83511">
        <ele>124.15</ele>
        <time>2012-11-18T09:39:26Z</time>
      </trkpt>
      <trkpt lat="44.55879" lon="0.83526">
        <ele>123.19</ele>
        <time>2012-11-18T09:39:28Z</time>
      </trkpt>
      <trkpt lat="44.55901" lon="0.83559">
        <ele>122.71</ele>
        <time>2012-11-18T09:39:35Z</time>
      </trkpt>
      <trkpt lat="44.55916" lon="0.83586">
        <ele>125.59</ele>
        <time>2012-11-18T09:39:41Z</time>
      </trkpt>
      <trkpt lat="44.55931" lon="0.8362">
        <ele>130.4</ele>
        <time>2012-11-18T09:39:50Z</time>
      </trkpt>
      <trkpt lat="44.55933" lon="0.83621">
        <ele>130.88</ele>
        <time>2012-11-18T09:39:51Z</time>
      </trkpt>
      <trkpt lat="44.5596" lon="0.8363">
        <ele>135.68</ele>
        <time>2012-11-18T09:40:04Z</time>
      </trkpt>
      <trkpt lat="44.55971" lon="0.83662">
        <ele>140.49</ele>
        <time>2012-11-18T09:40:17Z</time>
      </trkpt>
      <trkpt lat="44.55962" lon="0.83707">
        <ele>140.49</ele>
        <time>2012-11-18T09:40:31Z</time>
      </trkpt>
      <trkpt lat="44.55947" lon="0.83754">
        <ele>140.01</ele>
        <time>2012-11-18T09:40:43Z</time>
      </trkpt>
      <trkpt lat="44.55955" lon="0.83777">
        <ele>140.49</ele>
        <time>2012-11-18T09:40:53Z</time>
      </trkpt>
      <trkpt lat="44.55954" lon="0.83778">
        <ele>141.45</ele>
        <time>2012-11-18T09:41:13Z</time>
      </trkpt>
      <trkpt lat="44.55954" lon="0.83778">
        <ele>140.49</ele>
        <time>2012-11-18T09:41:37Z</time>
      </trkpt>
      <trkpt lat="44.55955" lon="0.83778">
        <ele>140.01</ele>
        <time>2012-11-18T09:42:07Z</time>
      </trkpt>
      <trkpt lat="44.55954" lon="0.83778">
        <ele>141.45</ele>
        <time>2012-11-18T09:42:29Z</time>
      </trkpt>
      <trkpt lat="44.55942" lon="0.83799">
        <ele>139.53</ele>
        <time>2012-11-18T09:42:37Z</time>
      </trkpt>
      <trkpt lat="44.55934" lon="0.83808">
        <ele>138.57</ele>
        <time>2012-11-18T09:42:39Z</time>
      </trkpt>
      <trkpt lat="44.5592" lon="0.83833">
        <ele>136.16</ele>
        <time>2012-11-18T09:42:43Z</time>
      </trkpt>
      <trkpt lat="44.55905" lon="0.83869">
        <ele>132.32</ele>
        <time>2012-11-18T09:42:48Z</time>
      </trkpt>
      <trkpt lat="44.55881" lon="0.83901">
        <ele>126.55</ele>
        <time>2012-11-18T09:42:54Z</time>
      </trkpt>
      <trkpt lat="44.55871" lon="0.83923">
        <ele>123.19</ele>
        <time>2012-11-18T09:42:57Z</time>
      </trkpt>
      <trkpt lat="44.55842" lon="0.83978">
        <ele>115.01</ele>
        <time>2012-11-18T09:43:05Z</time>
      </trkpt>
      <trkpt lat="44.55807" lon="0.84012">
        <ele>105.88</ele>
        <time>2012-11-18T09:43:15Z</time>
      </trkpt>
      <trkpt lat="44.55805" lon="0.84013">
        <ele>105.4</ele>
        <time>2012-11-18T09:43:16Z</time>
      </trkpt>
      <trkpt lat="44.55802" lon="0.84019">
        <ele>108.29</ele>
        <time>2012-11-18T09:43:27Z</time>
      </trkpt>
      <trkpt lat="44.55803" lon="0.84032">
        <ele>115.01</ele>
        <time>2012-11-18T09:43:40Z</time>
      </trkpt>
      <trkpt lat="44.558" lon="0.84041">
        <ele>117.9</ele>
        <time>2012-11-18T09:43:53Z</time>
      </trkpt>
      <trkpt lat="44.558" lon="0.84048">
        <ele>118.38</ele>
        <time>2012-11-18T09:44:07Z</time>
      </trkpt>
      <trkpt lat="44.558" lon="0.84048">
        <ele>118.38</ele>
        <time>2012-11-18T09:44:08Z</time>
      </trkpt>
      <trkpt lat="44.55814" lon="0.84058">
        <ele>114.53</ele>
        <time>2012-11-18T09:44:16Z</time>
      </trkpt>
      <trkpt lat="44.55818" lon="0.84057">
        <ele>116.94</ele>
        <time>2012-11-18T09:44:30Z</time>
      </trkpt>
      <trkpt lat="44.5582" lon="0.84054">
        <ele>120.3</ele>
        <time>2012-11-18T09:44:41Z</time>
      </trkpt>
      <trkpt lat="44.55827" lon="0.84056">
        <ele>123.67</ele>
        <time>2012-11-18T09:44:54Z</time>
      </trkpt>
      <trkpt lat="44.55846" lon="0.84057">
        <ele>126.07</ele>
        <time>2012-11-18T09:45:03Z</time>
      </trkpt>
      <trkpt lat="44.55848" lon="0.84058">
        <ele>125.59</ele>
        <time>2012-11-18T09:45:04Z</time>
      </trkpt>
      <trkpt lat="44.55863" lon="0.84067">
        <ele>127.51</ele>
        <time>2012-11-18T09:45:15Z</time>
      </trkpt>
      <trkpt lat="44.55873" lon="0.84075">
        <ele>128.47</ele>
        <time>2012-11-18T09:45:27Z</time>
      </trkpt>
      <trkpt lat="44.55876" lon="0.84072">
        <ele>128.47</ele>
        <time>2012-11-18T09:45:31Z</time>
      </trkpt>
      <trkpt lat="44.55879" lon="0.84062">
        <ele>126.55</ele>
        <time>2012-11-18T09:45:35Z</time>
      </trkpt>
      <trkpt lat="44.55878" lon="0.84057">
        <ele>125.11</ele>
        <time>2012-11-18T09:45:37Z</time>
      </trkpt>
      <trkpt lat="44.55885" lon="0.84043">
        <ele>119.82</ele>
        <time>2012-11-18T09:45:44Z</time>
      </trkpt>
      <trkpt lat="44.55902" lon="0.84059">
        <ele>117.42</ele>
        <time>2012-11-18T09:45:57Z</time>
      </trkpt>
      <trkpt lat="44.559" lon="0.84068">
        <ele>116.94</ele>
        <time>2012-11-18T09:46:07Z</time>
      </trkpt>
      <trkpt lat="44.55899" lon="0.84084">
        <ele>124.63</ele>
        <time>2012-11-18T09:46:20Z</time>
      </trkpt>
      <trkpt lat="44.55894" lon="0.84099">
        <ele>128.47</ele>
        <time>2012-11-18T09:46:35Z</time>
      </trkpt>
      <trkpt lat="44.55888" lon="0.84119">
        <ele>133.28</ele>
        <time>2012-11-18T09:46:46Z</time>
      </trkpt>
      <trkpt lat="44.55888" lon="0.84122">
        <ele>133.28</ele>
        <time>2012-11-18T09:46:48Z</time>
      </trkpt>
      <trkpt lat="44.5591" lon="0.84106">
        <ele>133.28</ele>
        <time>2012-11-18T09:46:58Z</time>
      </trkpt>
      <trkpt lat="44.55947" lon="0.84084">
        <ele>129.92</ele>
        <time>2012-11-18T09:47:06Z</time>
      </trkpt>
      <trkpt lat="44.5597" lon="0.84082">
        <ele>127.99</ele>
        <time>2012-11-18T09:47:10Z</time>
      </trkpt>
      <trkpt lat="44.55993" lon="0.84082">
        <ele>125.59</ele>
        <time>2012-11-18T09:47:14Z</time>
      </trkpt>
      <trkpt lat="44.56013" lon="0.84091">
        <ele>123.19</ele>
        <time>2012-11-18T09:47:19Z</time>
      </trkpt>
      <trkpt lat="44.56039" lon="0.84108">
        <ele>122.22</ele>
        <time>2012-11-18T09:47:32Z</time>
      </trkpt>
      <trkpt lat="44.56067" lon="0.84134">
        <ele>123.19</ele>
        <time>2012-11-18T09:47:46Z</time>
      </trkpt>
      <trkpt lat="44.56104" lon="0.84142">
        <ele>122.71</ele>
        <time>2012-11-18T09:47:59Z</time>
      </trkpt>
      <trkpt lat="44.56129" lon="0.84146">
        <ele>124.63</ele>
        <time>2012-11-18T09:48:07Z</time>
      </trkpt>
      <trkpt lat="44.56165" lon="0.84128">
        <ele>126.55</ele>
        <time>2012-11-18T09:48:18Z</time>
      </trkpt>
      <trkpt lat="44.56212" lon="0.84094">
        <ele>127.51</ele>
        <time>2012-11-18T09:48:34Z</time>
      </trkpt>
      <trkpt lat="44.56259" lon="0.84069">
        <ele>130.88</ele>
        <time>2012-11-18T09:48:49Z</time>
      </trkpt>
      <trkpt lat="44.56316" lon="0.84051">
        <ele>131.84</ele>
        <time>2012-11-18T09:49:06Z</time>
      </trkpt>
      <trkpt lat="44.56357" lon="0.84054">
        <ele>134.72</ele>
        <time>2012-11-18T09:49:19Z</time>
      </trkpt>
      <trkpt lat="44.56402" lon="0.84084">
        <ele>136.64</ele>
        <time>2012-11-18T09:49:33Z</time>
      </trkpt>
      <trkpt lat="44.56446" lon="0.84107">
        <ele>138.09</ele>
        <time>2012-11-18T09:49:45Z</time>
      </trkpt>
      <trkpt lat="44.5647" lon="0.8413">
        <ele>139.53</ele>
        <time>2012-11-18T09:49:52Z</time>
      </trkpt>
      <trkpt lat="44.56494" lon="0.84153">
        <ele>140.01</ele>
        <time>2012-11-18T09:49:59Z</time>
      </trkpt>
      <trkpt lat="44.56514" lon="0.84152">
        <ele>140.01</ele>
        <time>2012-11-18T09:50:04Z</time>
      </trkpt>
      <trkpt lat="44.56558" lon="0.84164">
        <ele>140.97</ele>
        <time>2012-11-18T09:50:17Z</time>
      </trkpt>
      <trkpt lat="44.56611" lon="0.84186">
        <ele>144.82</ele>
        <time>2012-11-18T09:50:32Z</time>
      </trkpt>
      <trkpt lat="44.56686" lon="0.84194">
        <ele>142.41</ele>
        <time>2012-11-18T09:50:51Z</time>
      </trkpt>
      <trkpt lat="44.56733" lon="0.84236">
        <ele>142.41</ele>
        <time>2012-11-18T09:51:05Z</time>
      </trkpt>
      <trkpt lat="44.56765" lon="0.84292">
        <ele>141.93</ele>
        <time>2012-11-18T09:51:18Z</time>
      </trkpt>
      <trkpt lat="44.56785" lon="0.84337">
        <ele>144.34</ele>
        <time>2012-11-18T09:51:30Z</time>
      </trkpt>
      <trkpt lat="44.5678" lon="0.84391">
        <ele>142.89</ele>
        <time>2012-11-18T09:51:41Z</time>
      </trkpt>
      <trkpt lat="44.56751" lon="0.84479">
        <ele>141.45</ele>
        <time>2012-11-18T09:51:59Z</time>
      </trkpt>
      <trkpt lat="44.56759" lon="0.8454">
        <ele>143.85</ele>
        <time>2012-11-18T09:52:12Z</time>
      </trkpt>
      <trkpt lat="44.56762" lon="0.8457">
        <ele>144.34</ele>
        <time>2012-11-18T09:52:21Z</time>
      </trkpt>
      <trkpt lat="44.5677" lon="0.84579">
        <ele>144.34</ele>
        <time>2012-11-18T09:52:27Z</time>
      </trkpt>
      <trkpt lat="44.56774" lon="0.84585">
        <ele>144.82</ele>
        <time>2012-11-18T09:52:30Z</time>
      </trkpt>
      <trkpt lat="44.56802" lon="0.84617">
        <ele>146.74</ele>
        <time>2012-11-18T09:52:46Z</time>
      </trkpt>
      <trkpt lat="44.56832" lon="0.84634">
        <ele>148.66</ele>
        <time>2012-11-18T09:52:58Z</time>
      </trkpt>
      <trkpt lat="44.56866" lon="0.84659">
        <ele>151.54</ele>
        <time>2012-11-18T09:53:11Z</time>
      </trkpt>
      <trkpt lat="44.56885" lon="0.84703">
        <ele>150.58</ele>
        <time>2012-11-18T09:53:24Z</time>
      </trkpt>
      <trkpt lat="44.56909" lon="0.84739">
        <ele>150.1</ele>
        <time>2012-11-18T09:53:36Z</time>
      </trkpt>
      <trkpt lat="44.56916" lon="0.84755">
        <ele>150.58</ele>
        <time>2012-11-18T09:53:40Z</time>
      </trkpt>
      <trkpt lat="44.56927" lon="0.84812">
        <ele>149.62</ele>
        <time>2012-11-18T09:53:54Z</time>
      </trkpt>
      <trkpt lat="44.56943" lon="0.84858">
        <ele>151.54</ele>
        <time>2012-11-18T09:54:07Z</time>
      </trkpt>
      <trkpt lat="44.56945" lon="0.8486">
        <ele>152.03</ele>
        <time>2012-11-18T09:54:08Z</time>
      </trkpt>
      <trkpt lat="44.56962" lon="0.84856">
        <ele>155.39</ele>
        <time>2012-11-18T09:54:19Z</time>
      </trkpt>
      <trkpt lat="44.56968" lon="0.84853">
        <ele>156.83</ele>
        <time>2012-11-18T09:54:22Z</time>
      </trkpt>
      <trkpt lat="44.56984" lon="0.8487">
        <ele>162.6</ele>
        <time>2012-11-18T09:54:33Z</time>
      </trkpt>
      <trkpt lat="44.56998" lon="0.84881">
        <ele>166.45</ele>
        <time>2012-11-18T09:54:42Z</time>
      </trkpt>
      <trkpt lat="44.57" lon="0.84881">
        <ele>166.45</ele>
        <time>2012-11-18T09:54:43Z</time>
      </trkpt>
      <trkpt lat="44.57031" lon="0.84889">
        <ele>172.69</ele>
        <time>2012-11-18T09:54:58Z</time>
      </trkpt>
      <trkpt lat="44.57049" lon="0.84899">
        <ele>177.02</ele>
        <time>2012-11-18T09:55:08Z</time>
      </trkpt>
      <trkpt lat="44.57056" lon="0.84906">
        <ele>178.46</ele>
        <time>2012-11-18T09:55:12Z</time>
      </trkpt>
      <trkpt lat="44.57061" lon="0.84911">
        <ele>178.46</ele>
        <time>2012-11-18T09:55:16Z</time>
      </trkpt>
      <trkpt lat="44.57063" lon="0.84911">
        <ele>178.94</ele>
        <time>2012-11-18T09:55:30Z</time>
      </trkpt>
      <trkpt lat="44.57067" lon="0.84913">
        <ele>179.42</ele>
        <time>2012-11-18T09:55:54Z</time>
      </trkpt>
      <trkpt lat="44.57068" lon="0.84914">
        <ele>177.98</ele>
        <time>2012-11-18T09:56:11Z</time>
      </trkpt>
      <trkpt lat="44.57071" lon="0.84916">
        <ele>178.46</ele>
        <time>2012-11-18T09:56:38Z</time>
      </trkpt>
      <trkpt lat="44.57066" lon="0.84916">
        <ele>177.5</ele>
        <time>2012-11-18T09:57:09Z</time>
      </trkpt>
      <trkpt lat="44.57069" lon="0.84916">
        <ele>176.06</ele>
        <time>2012-11-18T09:57:38Z</time>
      </trkpt>
      <trkpt lat="44.57068" lon="0.84915">
        <ele>174.14</ele>
        <time>2012-11-18T09:57:55Z</time>
      </trkpt>
      <trkpt lat="44.57064" lon="0.84913">
        <ele>174.62</ele>
        <time>2012-11-18T09:58:15Z</time>
      </trkpt>
      <trkpt lat="44.57063" lon="0.84912">
        <ele>175.1</ele>
        <time>2012-11-18T09:58:35Z</time>
      </trkpt>
      <trkpt lat="44.57077" lon="0.84912">
        <ele>175.58</ele>
        <time>2012-11-18T09:58:51Z</time>
      </trkpt>
      <trkpt lat="44.57107" lon="0.84907">
        <ele>179.42</ele>
        <time>2012-11-18T09:59:04Z</time>
      </trkpt>
      <trkpt lat="44.57144" lon="0.84908">
        <ele>180.38</ele>
        <time>2012-11-18T09:59:15Z</time>
      </trkpt>
      <trkpt lat="44.57182" lon="0.84915">
        <ele>181.35</ele>
        <time>2012-11-18T09:59:27Z</time>
      </trkpt>
      <trkpt lat="44.57193" lon="0.8492">
        <ele>180.87</ele>
        <time>2012-11-18T09:59:30Z</time>
      </trkpt>
      <trkpt lat="44.57211" lon="0.84917">
        <ele>180.38</ele>
        <time>2012-11-18T09:59:34Z</time>
      </trkpt>
      <trkpt lat="44.57226" lon="0.84912">
        <ele>179.42</ele>
        <time>2012-11-18T09:59:38Z</time>
      </trkpt>
      <trkpt lat="44.57227" lon="0.8492">
        <ele>177.5</ele>
        <time>2012-11-18T09:59:42Z</time>
      </trkpt>
      <trkpt lat="44.57208" lon="0.84972">
        <ele>172.69</ele>
        <time>2012-11-18T09:59:53Z</time>
      </trkpt>
      <trkpt lat="44.57172" lon="0.85067">
        <ele>166.93</ele>
        <time>2012-11-18T10:00:03Z</time>
      </trkpt>
      <trkpt lat="44.57165" lon="0.85087">
        <ele>165.96</ele>
        <time>2012-11-18T10:00:05Z</time>
      </trkpt>
      <trkpt lat="44.57161" lon="0.85171">
        <ele>159.72</ele>
        <time>2012-11-18T10:00:14Z</time>
      </trkpt>
      <trkpt lat="44.57162" lon="0.85203">
        <ele>157.31</ele>
        <time>2012-11-18T10:00:17Z</time>
      </trkpt>
      <trkpt lat="44.57155" lon="0.85224">
        <ele>156.35</ele>
        <time>2012-11-18T10:00:23Z</time>
      </trkpt>
      <trkpt lat="44.57155" lon="0.85235">
        <ele>156.35</ele>
        <time>2012-11-18T10:00:26Z</time>
      </trkpt>
      <trkpt lat="44.57147" lon="0.85254">
        <ele>157.79</ele>
        <time>2012-11-18T10:00:31Z</time>
      </trkpt>
      <trkpt lat="44.57124" lon="0.85273">
        <ele>161.16</ele>
        <time>2012-11-18T10:00:39Z</time>
      </trkpt>
      <trkpt lat="44.57115" lon="0.85297">
        <ele>160.2</ele>
        <time>2012-11-18T10:00:48Z</time>
      </trkpt>
      <trkpt lat="44.57093" lon="0.853">
        <ele>166.93</ele>
        <time>2012-11-18T10:01:03Z</time>
      </trkpt>
      <trkpt lat="44.5706" lon="0.85311">
        <ele>168.37</ele>
        <time>2012-11-18T10:01:14Z</time>
      </trkpt>
      <trkpt lat="44.57048" lon="0.85329">
        <ele>168.85</ele>
        <time>2012-11-18T10:01:19Z</time>
      </trkpt>
      <trkpt lat="44.57053" lon="0.8537">
        <ele>174.62</ele>
        <time>2012-11-18T10:01:30Z</time>
      </trkpt>
      <trkpt lat="44.57055" lon="0.85424">
        <ele>177.5</ele>
        <time>2012-11-18T10:01:43Z</time>
      </trkpt>
      <trkpt lat="44.57051" lon="0.8543">
        <ele>177.5</ele>
        <time>2012-11-18T10:01:45Z</time>
      </trkpt>
      <trkpt lat="44.57051" lon="0.85436">
        <ele>180.38</ele>
        <time>2012-11-18T10:01:53Z</time>
      </trkpt>
      <trkpt lat="44.57053" lon="0.85438">
        <ele>181.35</ele>
        <time>2012-11-18T10:02:07Z</time>
      </trkpt>
      <trkpt lat="44.57053" lon="0.85436">
        <ele>181.35</ele>
        <time>2012-11-18T10:02:14Z</time>
      </trkpt>
      <trkpt lat="44.57081" lon="0.85439">
        <ele>180.87</ele>
        <time>2012-11-18T10:02:27Z</time>
      </trkpt>
      <trkpt lat="44.57098" lon="0.85447">
        <ele>181.35</ele>
        <time>2012-11-18T10:02:32Z</time>
      </trkpt>
      <trkpt lat="44.57112" lon="0.85456">
        <ele>180.87</ele>
        <time>2012-11-18T10:02:36Z</time>
      </trkpt>
      <trkpt lat="44.57141" lon="0.85478">
        <ele>175.58</ele>
        <time>2012-11-18T10:02:44Z</time>
      </trkpt>
      <trkpt lat="44.57168" lon="0.85449">
        <ele>169.81</ele>
        <time>2012-11-18T10:02:50Z</time>
      </trkpt>
      <trkpt lat="44.57181" lon="0.85447">
        <ele>168.37</ele>
        <time>2012-11-18T10:02:52Z</time>
      </trkpt>
      <trkpt lat="44.57203" lon="0.85448">
        <ele>166.45</ele>
        <time>2012-11-18T10:02:55Z</time>
      </trkpt>
      <trkpt lat="44.57268" lon="0.85445">
        <ele>169.81</ele>
        <time>2012-11-18T10:03:07Z</time>
      </trkpt>
      <trkpt lat="44.57285" lon="0.85442">
        <ele>171.25</ele>
        <time>2012-11-18T10:03:11Z</time>
      </trkpt>
      <trkpt lat="44.5731" lon="0.85442">
        <ele>172.69</ele>
        <time>2012-11-18T10:03:16Z</time>
      </trkpt>
      <trkpt lat="44.57346" lon="0.85447">
        <ele>174.14</ele>
        <time>2012-11-18T10:03:27Z</time>
      </trkpt>
      <trkpt lat="44.57348" lon="0.85445">
        <ele>175.1</ele>
        <time>2012-11-18T10:03:29Z</time>
      </trkpt>
      <trkpt lat="44.57362" lon="0.85438">
        <ele>176.54</ele>
        <time>2012-11-18T10:03:36Z</time>
      </trkpt>
      <trkpt lat="44.57368" lon="0.85438">
        <ele>178.94</ele>
        <time>2012-11-18T10:03:52Z</time>
      </trkpt>
      <trkpt lat="44.57378" lon="0.8544">
        <ele>179.9</ele>
        <time>2012-11-18T10:03:58Z</time>
      </trkpt>
      <trkpt lat="44.57388" lon="0.85445">
        <ele>180.87</ele>
        <time>2012-11-18T10:04:05Z</time>
      </trkpt>
      <trkpt lat="44.57396" lon="0.85454">
        <ele>182.31</ele>
        <time>2012-11-18T10:04:14Z</time>
      </trkpt>
      <trkpt lat="44.57398" lon="0.85454">
        <ele>182.79</ele>
        <time>2012-11-18T10:04:30Z</time>
      </trkpt>
      <trkpt lat="44.57399" lon="0.85453">
        <ele>184.23</ele>
        <time>2012-11-18T10:04:45Z</time>
      </trkpt>
      <trkpt lat="44.57401" lon="0.85457">
        <ele>181.83</ele>
        <time>2012-11-18T10:05:09Z</time>
      </trkpt>
      <trkpt lat="44.57404" lon="0.8546">
        <ele>180.38</ele>
        <time>2012-11-18T10:05:19Z</time>
      </trkpt>
      <trkpt lat="44.57409" lon="0.85474">
        <ele>180.38</ele>
        <time>2012-11-18T10:05:26Z</time>
      </trkpt>
      <trkpt lat="44.57411" lon="0.8553">
        <ele>179.9</ele>
        <time>2012-11-18T10:05:39Z</time>
      </trkpt>
      <trkpt lat="44.57411" lon="0.85582">
        <ele>179.9</ele>
        <time>2012-11-18T10:05:50Z</time>
      </trkpt>
      <trkpt lat="44.57412" lon="0.85664">
        <ele>183.75</ele>
        <time>2012-11-18T10:06:05Z</time>
      </trkpt>
      <trkpt lat="44.57413" lon="0.85687">
        <ele>184.23</ele>
        <time>2012-11-18T10:06:09Z</time>
      </trkpt>
      <trkpt lat="44.57411" lon="0.85743">
        <ele>183.75</ele>
        <time>2012-11-18T10:06:18Z</time>
      </trkpt>
      <trkpt lat="44.57413" lon="0.85767">
        <ele>184.23</ele>
        <time>2012-11-18T10:06:22Z</time>
      </trkpt>
      <trkpt lat="44.57397" lon="0.85849">
        <ele>181.83</ele>
        <time>2012-11-18T10:06:37Z</time>
      </trkpt>
      <trkpt lat="44.57389" lon="0.85891">
        <ele>183.75</ele>
        <time>2012-11-18T10:06:47Z</time>
      </trkpt>
      <trkpt lat="44.57376" lon="0.85931">
        <ele>182.79</ele>
        <time>2012-11-18T10:07:01Z</time>
      </trkpt>
      <trkpt lat="44.57376" lon="0.85937">
        <ele>182.31</ele>
        <time>2012-11-18T10:07:16Z</time>
      </trkpt>
      <trkpt lat="44.57371" lon="0.85942">
        <ele>183.27</ele>
        <time>2012-11-18T10:07:36Z</time>
      </trkpt>
      <trkpt lat="44.57369" lon="0.85943">
        <ele>184.23</ele>
        <time>2012-11-18T10:07:38Z</time>
      </trkpt>
      <trkpt lat="44.57368" lon="0.8597">
        <ele>189.04</ele>
        <time>2012-11-18T10:07:52Z</time>
      </trkpt>
      <trkpt lat="44.57374" lon="0.86011">
        <ele>191.44</ele>
        <time>2012-11-18T10:08:04Z</time>
      </trkpt>
      <trkpt lat="44.57399" lon="0.86041">
        <ele>192.88</ele>
        <time>2012-11-18T10:08:16Z</time>
      </trkpt>
      <trkpt lat="44.57407" lon="0.86047">
        <ele>192.4</ele>
        <time>2012-11-18T10:08:18Z</time>
      </trkpt>
      <trkpt lat="44.57489" lon="0.86069">
        <ele>188.08</ele>
        <time>2012-11-18T10:08:33Z</time>
      </trkpt>
      <trkpt lat="44.57538" lon="0.86063">
        <ele>187.11</ele>
        <time>2012-11-18T10:08:41Z</time>
      </trkpt>
      <trkpt lat="44.57608" lon="0.86034">
        <ele>184.23</ele>
        <time>2012-11-18T10:08:54Z</time>
      </trkpt>
      <trkpt lat="44.57638" lon="0.86018">
        <ele>183.27</ele>
        <time>2012-11-18T10:09:00Z</time>
      </trkpt>
      <trkpt lat="44.57658" lon="0.86006">
        <ele>182.31</ele>
        <time>2012-11-18T10:09:04Z</time>
      </trkpt>
      <trkpt lat="44.5774" lon="0.8597">
        <ele>182.31</ele>
        <time>2012-11-18T10:09:20Z</time>
      </trkpt>
      <trkpt lat="44.57813" lon="0.85938">
        <ele>181.35</ele>
        <time>2012-11-18T10:09:33Z</time>
      </trkpt>
      <trkpt lat="44.57905" lon="0.85892">
        <ele>176.54</ele>
        <time>2012-11-18T10:09:47Z</time>
      </trkpt>
      <trkpt lat="44.57989" lon="0.8585">
        <ele>177.02</ele>
        <time>2012-11-18T10:10:01Z</time>
      </trkpt>
      <trkpt lat="44.58082" lon="0.85806">
        <ele>180.38</ele>
        <time>2012-11-18T10:10:18Z</time>
      </trkpt>
      <trkpt lat="44.58147" lon="0.85771">
        <ele>180.87</ele>
        <time>2012-11-18T10:10:29Z</time>
      </trkpt>
      <trkpt lat="44.58171" lon="0.85749">
        <ele>179.9</ele>
        <time>2012-11-18T10:10:33Z</time>
      </trkpt>
      <trkpt lat="44.58226" lon="0.85644">
        <ele>182.31</ele>
        <time>2012-11-18T10:10:47Z</time>
      </trkpt>
      <trkpt lat="44.58237" lon="0.85624">
        <ele>182.79</ele>
        <time>2012-11-18T10:10:50Z</time>
      </trkpt>
      <trkpt lat="44.58266" lon="0.856">
        <ele>181.35</ele>
        <time>2012-11-18T10:10:55Z</time>
      </trkpt>
      <trkpt lat="44.58303" lon="0.85587">
        <ele>179.42</ele>
        <time>2012-11-18T10:11:00Z</time>
      </trkpt>
      <trkpt lat="44.5841" lon="0.85553">
        <ele>181.35</ele>
        <time>2012-11-18T10:11:16Z</time>
      </trkpt>
      <trkpt lat="44.58434" lon="0.85541">
        <ele>182.31</ele>
        <time>2012-11-18T10:11:20Z</time>
      </trkpt>
      <trkpt lat="44.58507" lon="0.85481">
        <ele>183.75</ele>
        <time>2012-11-18T10:11:34Z</time>
      </trkpt>
      <trkpt lat="44.58534" lon="0.85472">
        <ele>182.79</ele>
        <time>2012-11-18T10:11:38Z</time>
      </trkpt>
      <trkpt lat="44.58638" lon="0.8549">
        <ele>179.42</ele>
        <time>2012-11-18T10:11:52Z</time>
      </trkpt>
      <trkpt lat="44.58765" lon="0.85521">
        <ele>177.02</ele>
        <time>2012-11-18T10:12:09Z</time>
      </trkpt>
      <trkpt lat="44.58796" lon="0.85526">
        <ele>177.02</ele>
        <time>2012-11-18T10:12:16Z</time>
      </trkpt>
      <trkpt lat="44.58797" lon="0.85526">
        <ele>178.46</ele>
        <time>2012-11-18T10:12:27Z</time>
      </trkpt>
      <trkpt lat="44.58795" lon="0.85523">
        <ele>180.38</ele>
        <time>2012-11-18T10:12:50Z</time>
      </trkpt>
      <trkpt lat="44.58805" lon="0.85495">
        <ele>180.87</ele>
        <time>2012-11-18T10:13:00Z</time>
      </trkpt>
      <trkpt lat="44.58807" lon="0.8549">
        <ele>180.87</ele>
        <time>2012-11-18T10:13:01Z</time>
      </trkpt>
      <trkpt lat="44.58823" lon="0.85467">
        <ele>181.35</ele>
        <time>2012-11-18T10:13:07Z</time>
      </trkpt>
      <trkpt lat="44.58833" lon="0.85413">
        <ele>179.9</ele>
        <time>2012-11-18T10:13:19Z</time>
      </trkpt>
      <trkpt lat="44.58835" lon="0.85408">
        <ele>178.94</ele>
        <time>2012-11-18T10:13:27Z</time>
      </trkpt>
      <trkpt lat="44.58835" lon="0.85407">
        <ele>179.9</ele>
        <time>2012-11-18T10:13:46Z</time>
      </trkpt>
      <trkpt lat="44.58836" lon="0.85406">
        <ele>183.27</ele>
        <time>2012-11-18T10:14:13Z</time>
      </trkpt>
      <trkpt lat="44.58837" lon="0.85407">
        <ele>181.83</ele>
        <time>2012-11-18T10:14:37Z</time>
      </trkpt>
      <trkpt lat="44.58838" lon="0.85407">
        <ele>182.31</ele>
        <time>2012-11-18T10:14:52Z</time>
      </trkpt>
      <trkpt lat="44.58838" lon="0.85406">
        <ele>184.23</ele>
        <time>2012-11-18T10:15:06Z</time>
      </trkpt>
      <trkpt lat="44.58861" lon="0.85374">
        <ele>181.83</ele>
        <time>2012-11-18T10:15:17Z</time>
      </trkpt>
      <trkpt lat="44.58869" lon="0.85362">
        <ele>180.38</ele>
        <time>2012-11-18T10:15:19Z</time>
      </trkpt>
      <trkpt lat="44.58921" lon="0.85292">
        <ele>176.06</ele>
        <time>2012-11-18T10:15:29Z</time>
      </trkpt>
      <trkpt lat="44.58949" lon="0.8527">
        <ele>174.14</ele>
        <time>2012-11-18T10:15:33Z</time>
      </trkpt>
      <trkpt lat="44.58994" lon="0.85211">
        <ele>171.73</ele>
        <time>2012-11-18T10:15:41Z</time>
      </trkpt>
      <trkpt lat="44.59073" lon="0.85165">
        <ele>171.25</ele>
        <time>2012-11-18T10:15:53Z</time>
      </trkpt>
      <trkpt lat="44.59133" lon="0.85149">
        <ele>169.81</ele>
        <time>2012-11-18T10:16:01Z</time>
      </trkpt>
      <trkpt lat="44.5923" lon="0.85078">
        <ele>165.96</ele>
        <time>2012-11-18T10:16:15Z</time>
      </trkpt>
      <trkpt lat="44.59237" lon="0.85073">
        <ele>165.48</ele>
        <time>2012-11-18T10:16:16Z</time>
      </trkpt>
      <trkpt lat="44.59259" lon="0.85063">
        <ele>165</ele>
        <time>2012-11-18T10:16:19Z</time>
      </trkpt>
      <trkpt lat="44.59317" lon="0.85016">
        <ele>165</ele>
        <time>2012-11-18T10:16:28Z</time>
      </trkpt>
      <trkpt lat="44.5933" lon="0.84981">
        <ele>165.48</ele>
        <time>2012-11-18T10:16:32Z</time>
      </trkpt>
      <trkpt lat="44.59385" lon="0.84912">
        <ele>165.96</ele>
        <time>2012-11-18T10:16:43Z</time>
      </trkpt>
      <trkpt lat="44.59391" lon="0.84906">
        <ele>165.96</ele>
        <time>2012-11-18T10:16:44Z</time>
      </trkpt>
      <trkpt lat="44.59404" lon="0.84858">
        <ele>165</ele>
        <time>2012-11-18T10:16:50Z</time>
      </trkpt>
      <trkpt lat="44.59403" lon="0.84843">
        <ele>165</ele>
        <time>2012-11-18T10:16:52Z</time>
      </trkpt>
      <trkpt lat="44.59428" lon="0.84795">
        <ele>165</ele>
        <time>2012-11-18T10:17:00Z</time>
      </trkpt>
      <trkpt lat="44.59445" lon="0.8477">
        <ele>165</ele>
        <time>2012-11-18T10:17:05Z</time>
      </trkpt>
      <trkpt lat="44.59444" lon="0.84748">
        <ele>164.52</ele>
        <time>2012-11-18T10:17:09Z</time>
      </trkpt>
      <trkpt lat="44.59427" lon="0.84681">
        <ele>160.68</ele>
        <time>2012-11-18T10:17:18Z</time>
      </trkpt>
      <trkpt lat="44.59397" lon="0.84578">
        <ele>158.27</ele>
        <time>2012-11-18T10:17:29Z</time>
      </trkpt>
      <trkpt lat="44.59405" lon="0.84545">
        <ele>157.79</ele>
        <time>2012-11-18T10:17:34Z</time>
      </trkpt>
      <trkpt lat="44.59468" lon="0.84473">
        <ele>157.31</ele>
        <time>2012-11-18T10:17:46Z</time>
      </trkpt>
      <trkpt lat="44.59552" lon="0.84388">
        <ele>155.87</ele>
        <time>2012-11-18T10:17:59Z</time>
      </trkpt>
      <trkpt lat="44.59558" lon="0.84382">
        <ele>155.87</ele>
        <time>2012-11-18T10:18:00Z</time>
      </trkpt>
      <trkpt lat="44.5958" lon="0.84362">
        <ele>156.35</ele>
        <time>2012-11-18T10:18:04Z</time>
      </trkpt>
      <trkpt lat="44.59632" lon="0.84315">
        <ele>157.79</ele>
        <time>2012-11-18T10:18:15Z</time>
      </trkpt>
      <trkpt lat="44.59662" lon="0.84264">
        <ele>154.43</ele>
        <time>2012-11-18T10:18:22Z</time>
      </trkpt>
      <trkpt lat="44.59674" lon="0.8425">
        <ele>152.99</ele>
        <time>2012-11-18T10:18:24Z</time>
      </trkpt>
      <trkpt lat="44.59703" lon="0.84207">
        <ele>150.1</ele>
        <time>2012-11-18T10:18:29Z</time>
      </trkpt>
      <trkpt lat="44.59745" lon="0.84147">
        <ele>146.26</ele>
        <time>2012-11-18T10:18:36Z</time>
      </trkpt>
      <trkpt lat="44.59756" lon="0.84127">
        <ele>145.3</ele>
        <time>2012-11-18T10:18:38Z</time>
      </trkpt>
      <trkpt lat="44.59817" lon="0.84046">
        <ele>142.89</ele>
        <time>2012-11-18T10:18:48Z</time>
      </trkpt>
      <trkpt lat="44.59824" lon="0.84039">
        <ele>142.89</ele>
        <time>2012-11-18T10:18:49Z</time>
      </trkpt>
      <trkpt lat="44.59849" lon="0.84005">
        <ele>144.82</ele>
        <time>2012-11-18T10:18:54Z</time>
      </trkpt>
      <trkpt lat="44.5986" lon="0.84013">
        <ele>145.78</ele>
        <time>2012-11-18T10:18:59Z</time>
      </trkpt>
      <trkpt lat="44.59864" lon="0.84024">
        <ele>146.74</ele>
        <time>2012-11-18T10:19:03Z</time>
      </trkpt>
      <trkpt lat="44.59894" lon="0.84079">
        <ele>148.66</ele>
        <time>2012-11-18T10:19:19Z</time>
      </trkpt>
      <trkpt lat="44.59915" lon="0.84129">
        <ele>147.7</ele>
        <time>2012-11-18T10:19:29Z</time>
      </trkpt>
      <trkpt lat="44.59952" lon="0.84217">
        <ele>141.45</ele>
        <time>2012-11-18T10:19:40Z</time>
      </trkpt>
      <trkpt lat="44.59956" lon="0.84227">
        <ele>140.49</ele>
        <time>2012-11-18T10:19:41Z</time>
      </trkpt>
      <trkpt lat="44.59986" lon="0.84254">
        <ele>137.13</ele>
        <time>2012-11-18T10:19:45Z</time>
      </trkpt>
      <trkpt lat="44.60035" lon="0.84259">
        <ele>132.8</ele>
        <time>2012-11-18T10:19:50Z</time>
      </trkpt>
      <trkpt lat="44.60066" lon="0.84275">
        <ele>128.95</ele>
        <time>2012-11-18T10:19:54Z</time>
      </trkpt>
      <trkpt lat="44.6008" lon="0.84295">
        <ele>127.51</ele>
        <time>2012-11-18T10:19:57Z</time>
      </trkpt>
      <trkpt lat="44.60095" lon="0.84293">
        <ele>127.99</ele>
        <time>2012-11-18T10:20:01Z</time>
      </trkpt>
      <trkpt lat="44.60115" lon="0.84262">
        <ele>126.55</ele>
        <time>2012-11-18T10:20:06Z</time>
      </trkpt>
      <trkpt lat="44.60127" lon="0.8423">
        <ele>126.07</ele>
        <time>2012-11-18T10:20:10Z</time>
      </trkpt>
      <trkpt lat="44.60136" lon="0.84196">
        <ele>127.03</ele>
        <time>2012-11-18T10:20:20Z</time>
      </trkpt>
      <trkpt lat="44.60132" lon="0.84194">
        <ele>127.51</ele>
        <time>2012-11-18T10:20:45Z</time>
      </trkpt>
      <trkpt lat="44.60132" lon="0.84193">
        <ele>127.51</ele>
        <time>2012-11-18T10:21:00Z</time>
      </trkpt>
      <trkpt lat="44.60132" lon="0.84191">
        <ele>128.47</ele>
        <time>2012-11-18T10:21:18Z</time>
      </trkpt>
      <trkpt lat="44.60132" lon="0.8419">
        <ele>127.99</ele>
        <time>2012-11-18T10:21:40Z</time>
      </trkpt>
      <trkpt lat="44.60137" lon="0.84174">
        <ele>129.43</ele>
        <time>2012-11-18T10:21:58Z</time>
      </trkpt>
      <trkpt lat="44.60141" lon="0.8415">
        <ele>128.95</ele>
        <time>2012-11-18T10:22:05Z</time>
      </trkpt>
      <trkpt lat="44.60158" lon="0.84138">
        <ele>129.92</ele>
        <time>2012-11-18T10:22:13Z</time>
      </trkpt>
      <trkpt lat="44.60173" lon="0.84105">
        <ele>133.28</ele>
        <time>2012-11-18T10:22:26Z</time>
      </trkpt>
      <trkpt lat="44.60174" lon="0.84101">
        <ele>133.76</ele>
        <time>2012-11-18T10:22:27Z</time>
      </trkpt>
      <trkpt lat="44.60194" lon="0.84095">
        <ele>135.2</ele>
        <time>2012-11-18T10:22:37Z</time>
      </trkpt>
      <trkpt lat="44.60195" lon="0.84093">
        <ele>135.2</ele>
        <time>2012-11-18T10:22:38Z</time>
      </trkpt>
      <trkpt lat="44.60221" lon="0.84077">
        <ele>139.53</ele>
        <time>2012-11-18T10:22:52Z</time>
      </trkpt>
      <trkpt lat="44.6025" lon="0.84096">
        <ele>144.82</ele>
        <time>2012-11-18T10:23:07Z</time>
      </trkpt>
      <trkpt lat="44.60286" lon="0.84104">
        <ele>148.66</ele>
        <time>2012-11-18T10:23:24Z</time>
      </trkpt>
      <trkpt lat="44.60311" lon="0.841">
        <ele>150.1</ele>
        <time>2012-11-18T10:23:37Z</time>
      </trkpt>
      <trkpt lat="44.60331" lon="0.84087">
        <ele>150.1</ele>
        <time>2012-11-18T10:23:51Z</time>
      </trkpt>
      <trkpt lat="44.60329" lon="0.84089">
        <ele>149.14</ele>
        <time>2012-11-18T10:24:10Z</time>
      </trkpt>
      <trkpt lat="44.6033" lon="0.84088">
        <ele>146.26</ele>
        <time>2012-11-18T10:24:34Z</time>
      </trkpt>
      <trkpt lat="44.60331" lon="0.84086">
        <ele>144.82</ele>
        <time>2012-11-18T10:25:02Z</time>
      </trkpt>
      <trkpt lat="44.6033" lon="0.84088">
        <ele>147.7</ele>
        <time>2012-11-18T10:25:25Z</time>
      </trkpt>
      <trkpt lat="44.60331" lon="0.84087">
        <ele>148.18</ele>
        <time>2012-11-18T10:25:44Z</time>
      </trkpt>
      <trkpt lat="44.60341" lon="0.84086">
        <ele>147.7</ele>
        <time>2012-11-18T10:25:50Z</time>
      </trkpt>
      <trkpt lat="44.60389" lon="0.84083">
        <ele>148.18</ele>
        <time>2012-11-18T10:26:04Z</time>
      </trkpt>
      <trkpt lat="44.60442" lon="0.84066">
        <ele>148.18</ele>
        <time>2012-11-18T10:26:18Z</time>
      </trkpt>
      <trkpt lat="44.60488" lon="0.84044">
        <ele>149.62</ele>
        <time>2012-11-18T10:26:32Z</time>
      </trkpt>
      <trkpt lat="44.60506" lon="0.84082">
        <ele>149.62</ele>
        <time>2012-11-18T10:26:42Z</time>
      </trkpt>
      <trkpt lat="44.60514" lon="0.84089">
        <ele>149.14</ele>
        <time>2012-11-18T10:26:44Z</time>
      </trkpt>
      <trkpt lat="44.6059" lon="0.84138">
        <ele>145.3</ele>
        <time>2012-11-18T10:26:57Z</time>
      </trkpt>
      <trkpt lat="44.60597" lon="0.84165">
        <ele>145.78</ele>
        <time>2012-11-18T10:27:02Z</time>
      </trkpt>
      <trkpt lat="44.60593" lon="0.84179">
        <ele>145.78</ele>
        <time>2012-11-18T10:27:04Z</time>
      </trkpt>
      <trkpt lat="44.60594" lon="0.84217">
        <ele>145.78</ele>
        <time>2012-11-18T10:27:12Z</time>
      </trkpt>
      <trkpt lat="44.60616" lon="0.84254">
        <ele>147.7</ele>
        <time>2012-11-18T10:27:22Z</time>
      </trkpt>
      <trkpt lat="44.6064" lon="0.84313">
        <ele>150.58</ele>
        <time>2012-11-18T10:27:36Z</time>
      </trkpt>
      <trkpt lat="44.60642" lon="0.84323">
        <ele>151.06</ele>
        <time>2012-11-18T10:27:38Z</time>
      </trkpt>
      <trkpt lat="44.60641" lon="0.84365">
        <ele>153.47</ele>
        <time>2012-11-18T10:27:49Z</time>
      </trkpt>
      <trkpt lat="44.60666" lon="0.84401">
        <ele>158.27</ele>
        <time>2012-11-18T10:28:04Z</time>
      </trkpt>
      <trkpt lat="44.60693" lon="0.84437">
        <ele>160.68</ele>
        <time>2012-11-18T10:28:19Z</time>
      </trkpt>
      <trkpt lat="44.60717" lon="0.8447">
        <ele>160.68</ele>
        <time>2012-11-18T10:28:32Z</time>
      </trkpt>
      <trkpt lat="44.60736" lon="0.84485">
        <ele>160.68</ele>
        <time>2012-11-18T10:28:44Z</time>
      </trkpt>
      <trkpt lat="44.60736" lon="0.84485">
        <ele>159.72</ele>
        <time>2012-11-18T10:29:00Z</time>
      </trkpt>
      <trkpt lat="44.60736" lon="0.84484">
        <ele>160.2</ele>
        <time>2012-11-18T10:29:14Z</time>
      </trkpt>
      <trkpt lat="44.60736" lon="0.84486">
        <ele>159.24</ele>
        <time>2012-11-18T10:29:29Z</time>
      </trkpt>
      <trkpt lat="44.60737" lon="0.84485">
        <ele>157.79</ele>
        <time>2012-11-18T10:29:53Z</time>
      </trkpt>
      <trkpt lat="44.60736" lon="0.84484">
        <ele>158.27</ele>
        <time>2012-11-18T10:30:14Z</time>
      </trkpt>
      <trkpt lat="44.60736" lon="0.84484">
        <ele>158.27</ele>
        <time>2012-11-18T10:30:34Z</time>
      </trkpt>
      <trkpt lat="44.60737" lon="0.84484">
        <ele>158.75</ele>
        <time>2012-11-18T10:30:52Z</time>
      </trkpt>
      <trkpt lat="44.60738" lon="0.84483">
        <ele>159.72</ele>
        <time>2012-11-18T10:31:14Z</time>
      </trkpt>
      <trkpt lat="44.60737" lon="0.84485">
        <ele>160.2</ele>
        <time>2012-11-18T10:31:42Z</time>
      </trkpt>
      <trkpt lat="44.60754" lon="0.84508">
        <ele>160.2</ele>
        <time>2012-11-18T10:31:54Z</time>
      </trkpt>
      <trkpt lat="44.60769" lon="0.84528">
        <ele>159.24</ele>
        <time>2012-11-18T10:32:00Z</time>
      </trkpt>
      <trkpt lat="44.60776" lon="0.84536">
        <ele>158.75</ele>
        <time>2012-11-18T10:32:02Z</time>
      </trkpt>
      <trkpt lat="44.60786" lon="0.84549">
        <ele>158.27</ele>
        <time>2012-11-18T10:32:05Z</time>
      </trkpt>
      <trkpt lat="44.60793" lon="0.84564">
        <ele>158.27</ele>
        <time>2012-11-18T10:32:08Z</time>
      </trkpt>
      <trkpt lat="44.60806" lon="0.84596">
        <ele>157.31</ele>
        <time>2012-11-18T10:32:13Z</time>
      </trkpt>
      <trkpt lat="44.60828" lon="0.84629">
        <ele>156.83</ele>
        <time>2012-11-18T10:32:19Z</time>
      </trkpt>
      <trkpt lat="44.6085" lon="0.84645">
        <ele>155.87</ele>
        <time>2012-11-18T10:32:24Z</time>
      </trkpt>
      <trkpt lat="44.6087" lon="0.84658">
        <ele>157.31</ele>
        <time>2012-11-18T10:32:30Z</time>
      </trkpt>
      <trkpt lat="44.60878" lon="0.8467">
        <ele>157.31</ele>
        <time>2012-11-18T10:32:35Z</time>
      </trkpt>
      <trkpt lat="44.60892" lon="0.84717">
        <ele>160.2</ele>
        <time>2012-11-18T10:32:47Z</time>
      </trkpt>
      <trkpt lat="44.60897" lon="0.84736">
        <ele>160.68</ele>
        <time>2012-11-18T10:32:58Z</time>
      </trkpt>
      <trkpt lat="44.60897" lon="0.84739">
        <ele>160.2</ele>
        <time>2012-11-18T10:33:11Z</time>
      </trkpt>
      <trkpt lat="44.60904" lon="0.84753">
        <ele>160.68</ele>
        <time>2012-11-18T10:33:16Z</time>
      </trkpt>
      <trkpt lat="44.60912" lon="0.84769">
        <ele>161.64</ele>
        <time>2012-11-18T10:33:22Z</time>
      </trkpt>
      <trkpt lat="44.6092" lon="0.84786">
        <ele>162.12</ele>
        <time>2012-11-18T10:33:29Z</time>
      </trkpt>
      <trkpt lat="44.60943" lon="0.84825">
        <ele>161.16</ele>
        <time>2012-11-18T10:33:41Z</time>
      </trkpt>
      <trkpt lat="44.60961" lon="0.84846">
        <ele>161.16</ele>
        <time>2012-11-18T10:33:49Z</time>
      </trkpt>
      <trkpt lat="44.60964" lon="0.84851">
        <ele>161.64</ele>
        <time>2012-11-18T10:33:51Z</time>
      </trkpt>
      <trkpt lat="44.60973" lon="0.84867">
        <ele>163.08</ele>
        <time>2012-11-18T10:33:57Z</time>
      </trkpt>
      <trkpt lat="44.60994" lon="0.84897">
        <ele>162.12</ele>
        <time>2012-11-18T10:34:08Z</time>
      </trkpt>
      <trkpt lat="44.61015" lon="0.84925">
        <ele>162.12</ele>
        <time>2012-11-18T10:34:19Z</time>
      </trkpt>
      <trkpt lat="44.61016" lon="0.84927">
        <ele>162.12</ele>
        <time>2012-11-18T10:34:20Z</time>
      </trkpt>
      <trkpt lat="44.61043" lon="0.84945">
        <ele>163.56</ele>
        <time>2012-11-18T10:34:34Z</time>
      </trkpt>
      <trkpt lat="44.61065" lon="0.84961">
        <ele>165</ele>
        <time>2012-11-18T10:34:47Z</time>
      </trkpt>
      <trkpt lat="44.61076" lon="0.84964">
        <ele>165.96</ele>
        <time>2012-11-18T10:34:53Z</time>
      </trkpt>
      <trkpt lat="44.61094" lon="0.84971">
        <ele>171.73</ele>
        <time>2012-11-18T10:35:06Z</time>
      </trkpt>
      <trkpt lat="44.61106" lon="0.84991">
        <ele>175.1</ele>
        <time>2012-11-18T10:35:19Z</time>
      </trkpt>
      <trkpt lat="44.61111" lon="0.84999">
        <ele>176.54</ele>
        <time>2012-11-18T10:35:28Z</time>
      </trkpt>
      <trkpt lat="44.6111" lon="0.84999">
        <ele>177.5</ele>
        <time>2012-11-18T10:35:45Z</time>
      </trkpt>
      <trkpt lat="44.61109" lon="0.85">
        <ele>177.98</ele>
        <time>2012-11-18T10:36:04Z</time>
      </trkpt>
      <trkpt lat="44.61107" lon="0.85013">
        <ele>177.5</ele>
        <time>2012-11-18T10:36:18Z</time>
      </trkpt>
      <trkpt lat="44.61105" lon="0.85016">
        <ele>177.02</ele>
        <time>2012-11-18T10:36:23Z</time>
      </trkpt>
      <trkpt lat="44.61094" lon="0.85026">
        <ele>175.1</ele>
        <time>2012-11-18T10:36:37Z</time>
      </trkpt>
      <trkpt lat="44.61091" lon="0.85035">
        <ele>174.62</ele>
        <time>2012-11-18T10:36:50Z</time>
      </trkpt>
      <trkpt lat="44.61082" lon="0.85049">
        <ele>173.66</ele>
        <time>2012-11-18T10:37:05Z</time>
      </trkpt>
      <trkpt lat="44.61075" lon="0.85051">
        <ele>173.66</ele>
        <time>2012-11-18T10:37:20Z</time>
      </trkpt>
      <trkpt lat="44.61075" lon="0.85055">
        <ele>171.25</ele>
        <time>2012-11-18T10:37:39Z</time>
      </trkpt>
      <trkpt lat="44.61089" lon="0.8507">
        <ele>171.73</ele>
        <time>2012-11-18T10:37:55Z</time>
      </trkpt>
      <trkpt lat="44.61096" lon="0.85077">
        <ele>170.29</ele>
        <time>2012-11-18T10:38:08Z</time>
      </trkpt>
      <trkpt lat="44.611" lon="0.85083">
        <ele>172.69</ele>
        <time>2012-11-18T10:38:21Z</time>
      </trkpt>
      <trkpt lat="44.61101" lon="0.8508">
        <ele>173.17</ele>
        <time>2012-11-18T10:38:35Z</time>
      </trkpt>
      <trkpt lat="44.61105" lon="0.85084">
        <ele>173.66</ele>
        <time>2012-11-18T10:38:48Z</time>
      </trkpt>
      <trkpt lat="44.61109" lon="0.8509">
        <ele>174.62</ele>
        <time>2012-11-18T10:38:58Z</time>
      </trkpt>
      <trkpt lat="44.61114" lon="0.85101">
        <ele>174.14</ele>
        <time>2012-11-18T10:39:11Z</time>
      </trkpt>
      <trkpt lat="44.61117" lon="0.8511">
        <ele>173.66</ele>
        <time>2012-11-18T10:39:25Z</time>
      </trkpt>
      <trkpt lat="44.61117" lon="0.8511">
        <ele>173.66</ele>
        <time>2012-11-18T10:39:31Z</time>
      </trkpt>
      <trkpt lat="44.61116" lon="0.85129">
        <ele>172.21</ele>
        <time>2012-11-18T10:39:45Z</time>
      </trkpt>
      <trkpt lat="44.61118" lon="0.85139">
        <ele>171.25</ele>
        <time>2012-11-18T10:39:49Z</time>
      </trkpt>
      <trkpt lat="44.61118" lon="0.8516">
        <ele>165.48</ele>
        <time>2012-11-18T10:40:02Z</time>
      </trkpt>
      <trkpt lat="44.61117" lon="0.85164">
        <ele>165</ele>
        <time>2012-11-18T10:40:04Z</time>
      </trkpt>
      <trkpt lat="44.61121" lon="0.8518">
        <ele>164.52</ele>
        <time>2012-11-18T10:40:16Z</time>
      </trkpt>
      <trkpt lat="44.61127" lon="0.85193">
        <ele>164.52</ele>
        <time>2012-11-18T10:40:28Z</time>
      </trkpt>
      <trkpt lat="44.61135" lon="0.85203">
        <ele>165.96</ele>
        <time>2012-11-18T10:40:39Z</time>
      </trkpt>
      <trkpt lat="44.61167" lon="0.85225">
        <ele>167.41</ele>
        <time>2012-11-18T10:40:57Z</time>
      </trkpt>
      <trkpt lat="44.61197" lon="0.85244">
        <ele>169.33</ele>
        <time>2012-11-18T10:41:13Z</time>
      </trkpt>
      <trkpt lat="44.61229" lon="0.85255">
        <ele>169.81</ele>
        <time>2012-11-18T10:41:28Z</time>
      </trkpt>
      <trkpt lat="44.61258" lon="0.8524">
        <ele>172.21</ele>
        <time>2012-11-18T10:41:42Z</time>
      </trkpt>
      <trkpt lat="44.61278" lon="0.85225">
        <ele>173.17</ele>
        <time>2012-11-18T10:41:55Z</time>
      </trkpt>
      <trkpt lat="44.6128" lon="0.8522">
        <ele>173.66</ele>
        <time>2012-11-18T10:42:07Z</time>
      </trkpt>
      <trkpt lat="44.61281" lon="0.8522">
        <ele>173.17</ele>
        <time>2012-11-18T10:42:12Z</time>
      </trkpt>
      <trkpt lat="44.61284" lon="0.8523">
        <ele>173.17</ele>
        <time>2012-11-18T10:42:24Z</time>
      </trkpt>
      <trkpt lat="44.61282" lon="0.85234">
        <ele>171.73</ele>
        <time>2012-11-18T10:42:49Z</time>
      </trkpt>
      <trkpt lat="44.61294" lon="0.85259">
        <ele>170.29</ele>
        <time>2012-11-18T10:43:01Z</time>
      </trkpt>
      <trkpt lat="44.61307" lon="0.85307">
        <ele>169.33</ele>
        <time>2012-11-18T10:43:18Z</time>
      </trkpt>
      <trkpt lat="44.61308" lon="0.85352">
        <ele>170.29</ele>
        <time>2012-11-18T10:43:32Z</time>
      </trkpt>
      <trkpt lat="44.6131" lon="0.85378">
        <ele>169.81</ele>
        <time>2012-11-18T10:43:44Z</time>
      </trkpt>
      <trkpt lat="44.6131" lon="0.85379">
        <ele>169.81</ele>
        <time>2012-11-18T10:44:02Z</time>
      </trkpt>
      <trkpt lat="44.61311" lon="0.85378">
        <ele>171.73</ele>
        <time>2012-11-18T10:44:31Z</time>
      </trkpt>
      <trkpt lat="44.6131" lon="0.85381">
        <ele>171.25</ele>
        <time>2012-11-18T10:44:53Z</time>
      </trkpt>
      <trkpt lat="44.61311" lon="0.85383">
        <ele>171.25</ele>
        <time>2012-11-18T10:45:05Z</time>
      </trkpt>
      <trkpt lat="44.61307" lon="0.85388">
        <ele>170.29</ele>
        <time>2012-11-18T10:45:09Z</time>
      </trkpt>
      <trkpt lat="44.61286" lon="0.85422">
        <ele>170.29</ele>
        <time>2012-11-18T10:45:20Z</time>
      </trkpt>
      <trkpt lat="44.61281" lon="0.85443">
        <ele>170.77</ele>
        <time>2012-11-18T10:45:24Z</time>
      </trkpt>
      <trkpt lat="44.61261" lon="0.85506">
        <ele>169.81</ele>
        <time>2012-11-18T10:45:36Z</time>
      </trkpt>
      <trkpt lat="44.61251" lon="0.85523">
        <ele>169.33</ele>
        <time>2012-11-18T10:45:39Z</time>
      </trkpt>
      <trkpt lat="44.61241" lon="0.85554">
        <ele>168.37</ele>
        <time>2012-11-18T10:45:44Z</time>
      </trkpt>
      <trkpt lat="44.61246" lon="0.85587">
        <ele>168.85</ele>
        <time>2012-11-18T10:45:49Z</time>
      </trkpt>
      <trkpt lat="44.61261" lon="0.85607">
        <ele>169.81</ele>
        <time>2012-11-18T10:45:53Z</time>
      </trkpt>
      <trkpt lat="44.61286" lon="0.85628">
        <ele>171.25</ele>
        <time>2012-11-18T10:45:59Z</time>
      </trkpt>
      <trkpt lat="44.61338" lon="0.85671">
        <ele>172.21</ele>
        <time>2012-11-18T10:46:12Z</time>
      </trkpt>
      <trkpt lat="44.61348" lon="0.85672">
        <ele>172.69</ele>
        <time>2012-11-18T10:46:16Z</time>
      </trkpt>
      <trkpt lat="44.61364" lon="0.85703">
        <ele>172.69</ele>
        <time>2012-11-18T10:46:24Z</time>
      </trkpt>
      <trkpt lat="44.6139" lon="0.85733">
        <ele>173.66</ele>
        <time>2012-11-18T10:46:33Z</time>
      </trkpt>
      <trkpt lat="44.61383" lon="0.85749">
        <ele>172.69</ele>
        <time>2012-11-18T10:46:41Z</time>
      </trkpt>
      <trkpt lat="44.61381" lon="0.85753">
        <ele>172.69</ele>
        <time>2012-11-18T10:46:44Z</time>
      </trkpt>
      <trkpt lat="44.61377" lon="0.85759">
        <ele>172.21</ele>
        <time>2012-11-18T10:46:49Z</time>
      </trkpt>
      <trkpt lat="44.61358" lon="0.85786">
        <ele>173.66</ele>
        <time>2012-11-18T10:47:04Z</time>
      </trkpt>
      <trkpt lat="44.61327" lon="0.85847">
        <ele>172.69</ele>
        <time>2012-11-18T10:47:20Z</time>
      </trkpt>
      <trkpt lat="44.61306" lon="0.85921">
        <ele>173.66</ele>
        <time>2012-11-18T10:47:34Z</time>
      </trkpt>
      <trkpt lat="44.61289" lon="0.85986">
        <ele>174.14</ele>
        <time>2012-11-18T10:47:45Z</time>
      </trkpt>
      <trkpt lat="44.6128" lon="0.86009">
        <ele>174.14</ele>
        <time>2012-11-18T10:47:49Z</time>
      </trkpt>
      <trkpt lat="44.61231" lon="0.8608">
        <ele>179.9</ele>
        <time>2012-11-18T10:48:07Z</time>
      </trkpt>
      <trkpt lat="44.61208" lon="0.86141">
        <ele>180.87</ele>
        <time>2012-11-18T10:48:21Z</time>
      </trkpt>
      <trkpt lat="44.612" lon="0.86196">
        <ele>180.38</ele>
        <time>2012-11-18T10:48:32Z</time>
      </trkpt>
      <trkpt lat="44.61203" lon="0.8624">
        <ele>178.46</ele>
        <time>2012-11-18T10:48:40Z</time>
      </trkpt>
      <trkpt lat="44.61202" lon="0.86252">
        <ele>177.98</ele>
        <time>2012-11-18T10:48:42Z</time>
      </trkpt>
      <trkpt lat="44.61189" lon="0.86329">
        <ele>178.94</ele>
        <time>2012-11-18T10:48:57Z</time>
      </trkpt>
      <trkpt lat="44.61189" lon="0.86342">
        <ele>182.31</ele>
        <time>2012-11-18T10:49:07Z</time>
      </trkpt>
      <trkpt lat="44.6119" lon="0.86346">
        <ele>182.31</ele>
        <time>2012-11-18T10:49:28Z</time>
      </trkpt>
      <trkpt lat="44.61187" lon="0.86347">
        <ele>182.31</ele>
        <time>2012-11-18T10:49:45Z</time>
      </trkpt>
      <trkpt lat="44.61189" lon="0.86344">
        <ele>181.35</ele>
        <time>2012-11-18T10:50:08Z</time>
      </trkpt>
      <trkpt lat="44.61188" lon="0.86345">
        <ele>182.31</ele>
        <time>2012-11-18T10:50:17Z</time>
      </trkpt>
      <trkpt lat="44.61181" lon="0.86344">
        <ele>182.79</ele>
        <time>2012-11-18T10:50:22Z</time>
      </trkpt>
      <trkpt lat="44.61135" lon="0.86301">
        <ele>187.11</ele>
        <time>2012-11-18T10:50:41Z</time>
      </trkpt>
      <trkpt lat="44.61101" lon="0.86262">
        <ele>189.04</ele>
        <time>2012-11-18T10:50:55Z</time>
      </trkpt>
      <trkpt lat="44.61092" lon="0.8626">
        <ele>188.08</ele>
        <time>2012-11-18T10:50:58Z</time>
      </trkpt>
      <trkpt lat="44.61063" lon="0.86252">
        <ele>186.63</ele>
        <time>2012-11-18T10:51:05Z</time>
      </trkpt>
      <trkpt lat="44.61055" lon="0.86246">
        <ele>186.63</ele>
        <time>2012-11-18T10:51:07Z</time>
      </trkpt>
      <trkpt lat="44.61031" lon="0.86232">
        <ele>185.67</ele>
        <time>2012-11-18T10:51:13Z</time>
      </trkpt>
      <trkpt lat="44.60996" lon="0.86218">
        <ele>185.19</ele>
        <time>2012-11-18T10:51:24Z</time>
      </trkpt>
      <trkpt lat="44.60967" lon="0.86203">
        <ele>186.15</ele>
        <time>2012-11-18T10:51:37Z</time>
      </trkpt>
      <trkpt lat="44.60946" lon="0.86197">
        <ele>187.59</ele>
        <time>2012-11-18T10:51:50Z</time>
      </trkpt>
      <trkpt lat="44.60916" lon="0.86184">
        <ele>185.19</ele>
        <time>2012-11-18T10:52:01Z</time>
      </trkpt>
      <trkpt lat="44.60909" lon="0.8618">
        <ele>184.23</ele>
        <time>2012-11-18T10:52:03Z</time>
      </trkpt>
      <trkpt lat="44.60862" lon="0.86145">
        <ele>181.83</ele>
        <time>2012-11-18T10:52:17Z</time>
      </trkpt>
      <trkpt lat="44.60851" lon="0.86135">
        <ele>181.35</ele>
        <time>2012-11-18T10:52:20Z</time>
      </trkpt>
      <trkpt lat="44.6081" lon="0.86106">
        <ele>179.42</ele>
        <time>2012-11-18T10:52:33Z</time>
      </trkpt>
      <trkpt lat="44.60768" lon="0.86071">
        <ele>178.94</ele>
        <time>2012-11-18T10:52:47Z</time>
      </trkpt>
      <trkpt lat="44.60762" lon="0.86064">
        <ele>178.46</ele>
        <time>2012-11-18T10:52:50Z</time>
      </trkpt>
      <trkpt lat="44.60756" lon="0.86077">
        <ele>178.46</ele>
        <time>2012-11-18T10:52:59Z</time>
      </trkpt>
      <trkpt lat="44.60755" lon="0.86081">
        <ele>178.46</ele>
        <time>2012-11-18T10:53:01Z</time>
      </trkpt>
      <trkpt lat="44.60741" lon="0.86108">
        <ele>180.38</ele>
        <time>2012-11-18T10:53:16Z</time>
      </trkpt>
      <trkpt lat="44.60718" lon="0.86133">
        <ele>182.31</ele>
        <time>2012-11-18T10:53:32Z</time>
      </trkpt>
      <trkpt lat="44.60695" lon="0.8617">
        <ele>182.79</ele>
        <time>2012-11-18T10:53:47Z</time>
      </trkpt>
      <trkpt lat="44.60683" lon="0.86214">
        <ele>184.71</ele>
        <time>2012-11-18T10:54:01Z</time>
      </trkpt>
      <trkpt lat="44.60682" lon="0.86217">
        <ele>186.15</ele>
        <time>2012-11-18T10:54:13Z</time>
      </trkpt>
      <trkpt lat="44.60682" lon="0.86216">
        <ele>187.59</ele>
        <time>2012-11-18T10:54:32Z</time>
      </trkpt>
      <trkpt lat="44.60683" lon="0.86218">
        <ele>186.63</ele>
        <time>2012-11-18T10:54:54Z</time>
      </trkpt>
      <trkpt lat="44.60681" lon="0.86217">
        <ele>186.15</ele>
        <time>2012-11-18T10:55:16Z</time>
      </trkpt>
      <trkpt lat="44.60681" lon="0.86219">
        <ele>185.67</ele>
        <time>2012-11-18T10:55:37Z</time>
      </trkpt>
      <trkpt lat="44.60677" lon="0.86236">
        <ele>186.15</ele>
        <time>2012-11-18T10:55:55Z</time>
      </trkpt>
      <trkpt lat="44.60662" lon="0.86295">
        <ele>184.71</ele>
        <time>2012-11-18T10:56:07Z</time>
      </trkpt>
      <trkpt lat="44.60652" lon="0.8635">
        <ele>183.75</ele>
        <time>2012-11-18T10:56:13Z</time>
      </trkpt>
      <trkpt lat="44.60641" lon="0.86399">
        <ele>181.83</ele>
        <time>2012-11-18T10:56:20Z</time>
      </trkpt>
      <trkpt lat="44.60611" lon="0.86386">
        <ele>178.46</ele>
        <time>2012-11-18T10:56:26Z</time>
      </trkpt>
      <trkpt lat="44.60561" lon="0.86376">
        <ele>176.06</ele>
        <time>2012-11-18T10:56:34Z</time>
      </trkpt>
      <trkpt lat="44.60555" lon="0.86376">
        <ele>176.06</ele>
        <time>2012-11-18T10:56:35Z</time>
      </trkpt>
      <trkpt lat="44.60525" lon="0.86372">
        <ele>174.62</ele>
        <time>2012-11-18T10:56:40Z</time>
      </trkpt>
      <trkpt lat="44.60513" lon="0.86371">
        <ele>174.62</ele>
        <time>2012-11-18T10:56:42Z</time>
      </trkpt>
      <trkpt lat="44.60483" lon="0.8636">
        <ele>173.66</ele>
        <time>2012-11-18T10:56:48Z</time>
      </trkpt>
      <trkpt lat="44.60471" lon="0.86356">
        <ele>173.17</ele>
        <time>2012-11-18T10:56:50Z</time>
      </trkpt>
      <trkpt lat="44.60451" lon="0.86343">
        <ele>171.25</ele>
        <time>2012-11-18T10:56:58Z</time>
      </trkpt>
      <trkpt lat="44.60449" lon="0.86337">
        <ele>171.25</ele>
        <time>2012-11-18T10:57:01Z</time>
      </trkpt>
      <trkpt lat="44.6044" lon="0.86331">
        <ele>170.29</ele>
        <time>2012-11-18T10:57:07Z</time>
      </trkpt>
      <trkpt lat="44.60424" lon="0.86311">
        <ele>167.89</ele>
        <time>2012-11-18T10:57:11Z</time>
      </trkpt>
      <trkpt lat="44.60407" lon="0.86305">
        <ele>166.45</ele>
        <time>2012-11-18T10:57:15Z</time>
      </trkpt>
      <trkpt lat="44.60387" lon="0.86305">
        <ele>166.93</ele>
        <time>2012-11-18T10:57:20Z</time>
      </trkpt>
      <trkpt lat="44.60374" lon="0.86309">
        <ele>166.45</ele>
        <time>2012-11-18T10:57:23Z</time>
      </trkpt>
      <trkpt lat="44.60342" lon="0.86335">
        <ele>165</ele>
        <time>2012-11-18T10:57:30Z</time>
      </trkpt>
      <trkpt lat="44.60313" lon="0.86348">
        <ele>163.56</ele>
        <time>2012-11-18T10:57:38Z</time>
      </trkpt>
      <trkpt lat="44.6028" lon="0.86406">
        <ele>158.75</ele>
        <time>2012-11-18T10:57:50Z</time>
      </trkpt>
      <trkpt lat="44.60262" lon="0.86441">
        <ele>157.79</ele>
        <time>2012-11-18T10:57:57Z</time>
      </trkpt>
      <trkpt lat="44.60254" lon="0.86486">
        <ele>157.31</ele>
        <time>2012-11-18T10:58:05Z</time>
      </trkpt>
      <trkpt lat="44.60262" lon="0.86497">
        <ele>157.79</ele>
        <time>2012-11-18T10:58:09Z</time>
      </trkpt>
      <trkpt lat="44.6028" lon="0.86504">
        <ele>156.35</ele>
        <time>2012-11-18T10:58:13Z</time>
      </trkpt>
      <trkpt lat="44.60301" lon="0.86516">
        <ele>154.91</ele>
        <time>2012-11-18T10:58:18Z</time>
      </trkpt>
      <trkpt lat="44.60312" lon="0.86541">
        <ele>154.91</ele>
        <time>2012-11-18T10:58:22Z</time>
      </trkpt>
      <trkpt lat="44.60324" lon="0.86581">
        <ele>158.75</ele>
        <time>2012-11-18T10:58:28Z</time>
      </trkpt>
      <trkpt lat="44.60327" lon="0.86648">
        <ele>159.72</ele>
        <time>2012-11-18T10:58:40Z</time>
      </trkpt>
      <trkpt lat="44.60325" lon="0.86673">
        <ele>160.2</ele>
        <time>2012-11-18T10:58:46Z</time>
      </trkpt>
      <trkpt lat="44.60312" lon="0.86726">
        <ele>155.39</ele>
        <time>2012-11-18T10:58:55Z</time>
      </trkpt>
      <trkpt lat="44.60314" lon="0.86761">
        <ele>157.79</ele>
        <time>2012-11-18T10:59:03Z</time>
      </trkpt>
      <trkpt lat="44.60315" lon="0.86764">
        <ele>158.27</ele>
        <time>2012-11-18T10:59:04Z</time>
      </trkpt>
      <trkpt lat="44.60316" lon="0.86813">
        <ele>165</ele>
        <time>2012-11-18T10:59:20Z</time>
      </trkpt>
      <trkpt lat="44.60318" lon="0.86862">
        <ele>170.77</ele>
        <time>2012-11-18T10:59:35Z</time>
      </trkpt>
      <trkpt lat="44.60319" lon="0.8691">
        <ele>177.02</ele>
        <time>2012-11-18T10:59:49Z</time>
      </trkpt>
      <trkpt lat="44.60318" lon="0.86952">
        <ele>177.5</ele>
        <time>2012-11-18T11:00:02Z</time>
      </trkpt>
      <trkpt lat="44.60318" lon="0.86959">
        <ele>178.46</ele>
        <time>2012-11-18T11:00:14Z</time>
      </trkpt>
      <trkpt lat="44.60319" lon="0.8696">
        <ele>178.46</ele>
        <time>2012-11-18T11:00:36Z</time>
      </trkpt>
      <trkpt lat="44.60318" lon="0.8696">
        <ele>178.94</ele>
        <time>2012-11-18T11:01:02Z</time>
      </trkpt>
      <trkpt lat="44.60317" lon="0.86961">
        <ele>179.42</ele>
        <time>2012-11-18T11:01:20Z</time>
      </trkpt>
      <trkpt lat="44.60316" lon="0.86962">
        <ele>179.9</ele>
        <time>2012-11-18T11:01:38Z</time>
      </trkpt>
      <trkpt lat="44.60316" lon="0.86963">
        <ele>181.35</ele>
        <time>2012-11-18T11:02:00Z</time>
      </trkpt>
      <trkpt lat="44.60318" lon="0.86964">
        <ele>181.35</ele>
        <time>2012-11-18T11:02:18Z</time>
      </trkpt>
      <trkpt lat="44.60318" lon="0.86964">
        <ele>179.9</ele>
        <time>2012-11-18T11:02:39Z</time>
      </trkpt>
      <trkpt lat="44.60318" lon="0.86966">
        <ele>184.23</ele>
        <time>2012-11-18T11:03:13Z</time>
      </trkpt>
      <trkpt lat="44.60305" lon="0.86969">
        <ele>182.79</ele>
        <time>2012-11-18T11:03:25Z</time>
      </trkpt>
      <trkpt lat="44.60271" lon="0.86987">
        <ele>182.79</ele>
        <time>2012-11-18T11:03:37Z</time>
      </trkpt>
      <trkpt lat="44.60212" lon="0.8701">
        <ele>176.54</ele>
        <time>2012-11-18T11:03:46Z</time>
      </trkpt>
      <trkpt lat="44.60204" lon="0.87012">
        <ele>176.06</ele>
        <time>2012-11-18T11:03:47Z</time>
      </trkpt>
      <trkpt lat="44.60151" lon="0.87054">
        <ele>173.17</ele>
        <time>2012-11-18T11:03:55Z</time>
      </trkpt>
      <trkpt lat="44.60088" lon="0.87079">
        <ele>169.81</ele>
        <time>2012-11-18T11:04:05Z</time>
      </trkpt>
      <trkpt lat="44.60027" lon="0.87095">
        <ele>160.2</ele>
        <time>2012-11-18T11:04:15Z</time>
      </trkpt>
      <trkpt lat="44.60027" lon="0.87113">
        <ele>159.24</ele>
        <time>2012-11-18T11:04:21Z</time>
      </trkpt>
      <trkpt lat="44.60034" lon="0.87124">
        <ele>158.75</ele>
        <time>2012-11-18T11:04:25Z</time>
      </trkpt>
      <trkpt lat="44.60034" lon="0.87133">
        <ele>158.27</ele>
        <time>2012-11-18T11:04:35Z</time>
      </trkpt>
    </trkseg>
  </trk>
</gpx>